Observation data for Palo Duro Canyon State Park Floor on 11/16/2019      Previous  Date       Current Mesonet Observations  Soil Data  Daily Summary Page  Observations in Plain Language
KPD2 160600Z 22004KT 10/M02 A3016 RMK A01 T01041016  RH  043%=      5-min Rain = 0
KPD2 160601Z 19003KT 10/M02 A3016 RMK A01 T01041016  RH  043%=      5-min Rain = 0
KPD2 160602Z 18008KT 10/M02 A3015 RMK A01 T01031017  RH  043%=      5-min Rain = 0
KPD2 160603Z 18009G14KT 10/M02 A3015 RMK A01 T01031016  RH  043%=      5-min Rain = 0
KPD2 160604Z 22007G14KT 10/M02 A3016 RMK A01 T01041016  RH  043%=      5-min Rain = 0
KPD2 160605Z 17006G12KT 11/M02 A3016 RMK A01 T01051016  RH  043%=      5-min Rain = 0
KPD2 160606Z 20007G14KT 11/M02 A3016 RMK A01 T01051016  RH  043%=      5-min Rain = 0
KPD2 160607Z 20009G14KT 11/M02 A3016 RMK A01 T01051016  RH  043%=      5-min Rain = 0
KPD2 160608Z 17005KT 11/M02 A3015 RMK A01 T01051016  RH  043%=      5-min Rain = 0
KPD2 160609Z 19012KT 11/M02 A3015 RMK A01 T01061016  RH  043%=      5-min Rain = 0
KPD2 160610Z 20007KT 11/M02 A3015 RMK A01 T01051016  RH  043%=      5-min Rain = 0
KPD2 160611Z 20004KT 11/M02 A3016 RMK A01 T01051016  RH  043%=      5-min Rain = 0
KPD2 160612Z 18008KT 11/M02 A3016 RMK A01 T01051016  RH  043%=      5-min Rain = 0
KPD2 160613Z 20005G13KT 11/M02 A3016 RMK A01 T01051016  RH  043%=      5-min Rain = 0
KPD2 160614Z 19007KT 10/M02 A3015 RMK A01 T01041016  RH  043%=      5-min Rain = 0
KPD2 160615Z 21006G11KT 10/M02 A3015 RMK A01 T01041016  RH  043%=      5-min Rain = 0
KPD2 160616Z 21006KT 10/M02 A3015 RMK A01 T01031016  RH  043%=      5-min Rain = 0
KPD2 160617Z 19004KT 10/M02 A3015 RMK A01 T01041016  RH  043%=      5-min Rain = 0
KPD2 160618Z 22005G10KT 10/M02 A3015 RMK A01 T01041016  RH  043%=      5-min Rain = 0
KPD2 160619Z 21005KT 10/M02 A3015 RMK A01 T01041017  RH  043%=      5-min Rain = 0
KPD2 160620Z 20010G16KT 10/M02 A3015 RMK A01 T01041016  RH  043%=      5-min Rain = 0
KPD2 160621Z 18010KT 10/M02 A3015 RMK A01 T01041016  RH  043%=      5-min Rain = 0
KPD2 160622Z 19009KT 11/M02 A3015 RMK A01 T01051016  RH  043%=      5-min Rain = 0
KPD2 160623Z 21009KT 11/M02 A3015 RMK A01 T01061016  RH  043%=      5-min Rain = 0
KPD2 160624Z 21005KT 11/M02 A3015 RMK A01 T01061016  RH  043%=      5-min Rain = 0
KPD2 160625Z 21005KT 11/M02 A3015 RMK A01 T01051017  RH  043%=      5-min Rain = 0
KPD2 160626Z 17005G10KT 11/M02 A3015 RMK A01 T01051017  RH  043%=      5-min Rain = 0
KPD2 160627Z 22010KT 11/M02 A3015 RMK A01 T01051016  RH  043%=      5-min Rain = 0
KPD2 160628Z 25007KT 11/M02 A3015 RMK A01 T01051017  RH  043%=      5-min Rain = 0
KPD2 160629Z 19007G12KT 11/M02 A3015 RMK A01 T01051017  RH  043%=      5-min Rain = 0
KPD2 160630Z 18007G12KT 11/M02 A3015 RMK A01 T01061017  RH  043%=      5-min Rain = 0
KPD2 160631Z 20006KT 11/M02 A3015 RMK A01 T01061017  RH  042%=      5-min Rain = 0
KPD2 160632Z 19004KT 11/M02 A3015 RMK A01 T01061017  RH  042%=      5-min Rain = 0
KPD2 160633Z 24001KT 11/M02 A3015 RMK A01 T01051017  RH  043%=      5-min Rain = 0
KPD2 160634Z 19001G8KT 11/M02 A3015 RMK A01 T01051017  RH  043%=      5-min Rain = 0
KPD2 160635Z 19010G15KT 10/M02 A3015 RMK A01 T01041017  RH  043%=      5-min Rain = 0
KPD2 160636Z 22004KT 11/M02 A3014 RMK A01 T01051016  RH  043%=      5-min Rain = 0
KPD2 160637Z 26002KT 11/M02 A3015 RMK A01 T01051017  RH  043%=      5-min Rain = 0
KPD2 160638Z 24001KT 11/M02 A3015 RMK A01 T01051017  RH  043%=      5-min Rain = 0
KPD2 160639Z 25003G9KT 10/M02 A3014 RMK A01 T01041017  RH  043%=      5-min Rain = 0
KPD2 160640Z 23004G10KT 10/M02 A3014 RMK A01 T01041017  RH  043%=      5-min Rain = 0
KPD2 160641Z 18003KT 10/M02 A3014 RMK A01 T01041017  RH  043%=      5-min Rain = 0
KPD2 160642Z 24003KT 10/M02 A3014 RMK A01 T01031017  RH  043%=      5-min Rain = 0
KPD2 160643Z 21002KT 10/M02 A3014 RMK A01 T01031017  RH  043%=      5-min Rain = 0
KPD2 160644Z 05002KT 10/M02 A3015 RMK A01 T01031017  RH  043%=      5-min Rain = 0
KPD2 160645Z 19002KT 10/M02 A3014 RMK A01 T01021017  RH  043%=      5-min Rain = 0
KPD2 160646Z 19005KT 10/M02 A3015 RMK A01 T01021017  RH  043%=      5-min Rain = 0
KPD2 160647Z 27003G10KT 10/M02 A3014 RMK A01 T01031017  RH  043%=      5-min Rain = 0
KPD2 160648Z 27007G12KT 10/M02 A3014 RMK A01 T01041017  RH  043%=      5-min Rain = 0
KPD2 160649Z 25003KT 10/M02 A3015 RMK A01 T01031018  RH  043%=      5-min Rain = 0
KPD2 160650Z 23001KT 10/M02 A3015 RMK A01 T01031017  RH  043%=      5-min Rain = 0
KPD2 160651Z 31003KT 10/M02 A3014 RMK A01 T01031017  RH  043%=      5-min Rain = 0
KPD2 160652Z 33002KT 10/M02 A3015 RMK A01 T01021018  RH  043%=      5-min Rain = 0
KPD2 160653Z 26003G8KT 10/M02 A3014 RMK A01 T01001018  RH  044%=      5-min Rain = 0
KPD2 160654Z 25007KT 10/M02 A3014 RMK A01 T01001018  RH  044%=      5-min Rain = 0
KPD2 160655Z 23004KT 10/M02 A3014 RMK A01 T01001017  RH  044%=      5-min Rain = 0
KPD2 160656Z 24005KT 10/M02 A3014 RMK A01 T01011017  RH  044%=      5-min Rain = 0
KPD2 160657Z 21001KT 10/M02 A3014 RMK A01 T01011017  RH  043%=      5-min Rain = 0
KPD2 160658Z 26001KT 10/M02 A3014 RMK A01 T01021017  RH  043%=      5-min Rain = 0
KPD2 160659Z 26002KT 10/M02 A3014 RMK A01 T01021017  RH  043%=      5-min Rain = 0
KPD2 160700Z 22003KT 10/M02 A3014 RMK A01 T01021018  RH  043%=      5-min Rain = 0
KPD2 160701Z 34001KT 10/M02 A3014 RMK A01 T01011018  RH  044%=      5-min Rain = 0
KPD2 160702Z 15002KT 10/M02 A3014 RMK A01 T01001018  RH  044%=      5-min Rain = 0
KPD2 160703Z 23005KT 10/M02 A3014 RMK A01 T00991017  RH  044%=      5-min Rain = 0
KPD2 160704Z 29004G10KT 10/M02 A3014 RMK A01 T00981018  RH  044%=      5-min Rain = 0
KPD2 160705Z 25007KT 10/M02 A3014 RMK A01 T00981018  RH  044%=      5-min Rain = 0
KPD2 160706Z 26007G13KT 10/M02 A3014 RMK A01 T00981017  RH  044%=      5-min Rain = 0
KPD2 160707Z 25007KT 10/M02 A3014 RMK A01 T00991017  RH  044%=      5-min Rain = 0
KPD2 160708Z 25006KT 10/M02 A3014 RMK A01 T00991017  RH  044%=      5-min Rain = 0
KPD2 160709Z 26005G10KT 10/M02 A3014 RMK A01 T00991017  RH  044%=      5-min Rain = 0
KPD2 160710Z 23005KT 10/M02 A3014 RMK A01 T00981018  RH  045%=      5-min Rain = 0
KPD2 160711Z 25005KT 10/M02 A3014 RMK A01 T00981017  RH  045%=      5-min Rain = 0
KPD2 160712Z 27008G14KT 10/M02 A3014 RMK A01 T00991017  RH  044%=      5-min Rain = 0
KPD2 160713Z 24006KT 10/M02 A3014 RMK A01 T00981017  RH  044%=      5-min Rain = 0
KPD2 160714Z 23004KT 10/M02 A3014 RMK A01 T00981017  RH  045%=      5-min Rain = 0
KPD2 160715Z 22008KT 10/M02 A3014 RMK A01 T00981017  RH  045%=      5-min Rain = 0
KPD2 160716Z 22010G15KT 10/M02 A3014 RMK A01 T00971017  RH  045%=      5-min Rain = 0
KPD2 160717Z 25006KT 10/M02 A3014 RMK A01 T00981017  RH  045%=      5-min Rain = 0
KPD2 160718Z 23006KT 10/M02 A3014 RMK A01 T00991017  RH  044%=      5-min Rain = 0
KPD2 160719Z 24004KT 10/M02 A3014 RMK A01 T00981017  RH  044%=      5-min Rain = 0
KPD2 160720Z 23004G9KT 10/M02 A3013 RMK A01 T00981017  RH  045%=      5-min Rain = 0
KPD2 160721Z 23004KT 10/M02 A3014 RMK A01 T00981017  RH  045%=      5-min Rain = 0
KPD2 160722Z 25004KT 10/M02 A3014 RMK A01 T00981017  RH  045%=      5-min Rain = 0
KPD2 160723Z 22006KT 10/M02 A3013 RMK A01 T00971017  RH  045%=      5-min Rain = 0
KPD2 160724Z 23003KT 10/M02 A3013 RMK A01 T00981017  RH  045%=      5-min Rain = 0
KPD2 160725Z 29002KT 10/M02 A3013 RMK A01 T00981016  RH  045%=      5-min Rain = 0
KPD2 160726Z 23005G10KT 10/M02 A3013 RMK A01 T00971017  RH  045%=      5-min Rain = 0
KPD2 160727Z 26004KT 10/M02 A3013 RMK A01 T00971017  RH  045%=      5-min Rain = 0
KPD2 160728Z 28004KT 10/M02 A3013 RMK A01 T00971017  RH  045%=      5-min Rain = 0
KPD2 160729Z 22007KT 10/M02 A3013 RMK A01 T00971016  RH  045%=      5-min Rain = 0
KPD2 160730Z 24004KT 10/M02 A3013 RMK A01 T00971016  RH  045%=      5-min Rain = 0
KPD2 160731Z 35001KT 10/M02 A3013 RMK A01 T00961017  RH  045%=      5-min Rain = 0
KPD2 160732Z 27002KT 09/M02 A3013 RMK A01 T00941018  RH  045%=      5-min Rain = 0
KPD2 160733Z 25008KT 09/M02 A3013 RMK A01 T00921018  RH  046%=      5-min Rain = 0
KPD2 160734Z 24007KT 09/M02 A3013 RMK A01 T00911017  RH  046%=      5-min Rain = 0
KPD2 160735Z 21003KT 09/M02 A3013 RMK A01 T00921017  RH  047%=      5-min Rain = 0
KPD2 160736Z 24004KT 09/M02 A3013 RMK A01 T00931016  RH  046%=      5-min Rain = 0
KPD2 160737Z 30003KT 09/M02 A3013 RMK A01 T00931017  RH  046%=      5-min Rain = 0
KPD2 160738Z 21005G11KT 09/M02 A3013 RMK A01 T00921017  RH  047%=      5-min Rain = 0
KPD2 160739Z 25007KT 09/M02 A3013 RMK A01 T00941015  RH  046%=      5-min Rain = 0
KPD2 160740Z 23007G13KT 10/M02 A3013 RMK A01 T00951016  RH  046%=      5-min Rain = 0
KPD2 160741Z 32002KT 10/M02 A3013 RMK A01 T00961016  RH  046%=      5-min Rain = 0
KPD2 160742Z 23005KT 10/M02 A3013 RMK A01 T00951016  RH  046%=      5-min Rain = 0
KPD2 160743Z 22003KT 10/M02 A3013 RMK A01 T00951016  RH  046%=      5-min Rain = 0
KPD2 160744Z 34001KT 10/M02 A3013 RMK A01 T00951016  RH  046%=      5-min Rain = 0
KPD2 160745Z 20005KT 09/M02 A3013 RMK A01 T00931017  RH  046%=      5-min Rain = 0
KPD2 160746Z 24004KT 09/M02 A3013 RMK A01 T00931017  RH  046%=      5-min Rain = 0
KPD2 160747Z 23006G11KT 09/M02 A3013 RMK A01 T00931016  RH  046%=      5-min Rain = 0
KPD2 160748Z 25005KT 09/M02 A3013 RMK A01 T00931017  RH  046%=      5-min Rain = 0
KPD2 160749Z 25006KT 09/M02 A3013 RMK A01 T00931017  RH  046%=      5-min Rain = 0
KPD2 160750Z 23005G10KT 09/M02 A3013 RMK A01 T00931017  RH  046%=      5-min Rain = 0
KPD2 160751Z 24005G10KT 09/M02 A3013 RMK A01 T00931017  RH  046%=      5-min Rain = 0
KPD2 160752Z 24006KT 09/M02 A3013 RMK A01 T00941016  RH  046%=      5-min Rain = 0
KPD2 160753Z 26003KT 10/M02 A3013 RMK A01 T00951016  RH  046%=      5-min Rain = 0
KPD2 160754Z 22005KT 10/M02 A3013 RMK A01 T00951017  RH  046%=      5-min Rain = 0
KPD2 160755Z 31002KT 10/M02 A3013 RMK A01 T00951016  RH  046%=      5-min Rain = 0
KPD2 160756Z 22003KT 09/M02 A3013 RMK A01 T00941017  RH  046%=      5-min Rain = 0
KPD2 160757Z 26005KT 09/M02 A3013 RMK A01 T00931017  RH  046%=      5-min Rain = 0
KPD2 160758Z 24010G15KT 09/M02 A3013 RMK A01 T00921017  RH  046%=      5-min Rain = 0
KPD2 160759Z 27005KT 09/M02 A3013 RMK A01 T00931016  RH  046%=      5-min Rain = 0
KPD2 160800Z 24007KT 09/M02 A3013 RMK A01 T00931017  RH  046%=      5-min Rain = 0
KPD2 160801Z 24011KT 09/M02 A3013 RMK A01 T00931016  RH  046%=      5-min Rain = 0
KPD2 160802Z 22006G12KT 09/M02 A3013 RMK A01 T00931016  RH  046%=      5-min Rain = 0
KPD2 160803Z 22007G14KT 09/M02 A3013 RMK A01 T00941016  RH  046%=      5-min Rain = 0
KPD2 160804Z 21006G11KT 09/M02 A3013 RMK A01 T00941016  RH  046%=      5-min Rain = 0
KPD2 160805Z 22005KT 09/M02 A3013 RMK A01 T00941015  RH  046%=      5-min Rain = 0
KPD2 160806Z 23003KT 09/M02 A3013 RMK A01 T00941016  RH  046%=      5-min Rain = 0
KPD2 160807Z 22007KT 10/M02 A3013 RMK A01 T00951015  RH  046%=      5-min Rain = 0
KPD2 160808Z 21008KT 10/M02 A3013 RMK A01 T00951015  RH  046%=      5-min Rain = 0
KPD2 160809Z 26001KT 10/M02 A3013 RMK A01 T00961015  RH  046%=      5-min Rain = 0
KPD2 160810Z 26003KT 10/M02 A3013 RMK A01 T00961015  RH  046%=      5-min Rain = 0
KPD2 160811Z 24003KT 09/M02 A3013 RMK A01 T00941016  RH  046%=      5-min Rain = 0
KPD2 160812Z 25006KT 09/M02 A3013 RMK A01 T00941015  RH  046%=      5-min Rain = 0
KPD2 160813Z 19004KT 09/M02 A3013 RMK A01 T00931016  RH  047%=      5-min Rain = 0
KPD2 160814Z 21007KT 09/M02 A3013 RMK A01 T00921015  RH  047%=      5-min Rain = 0
KPD2 160815Z 24005KT 09/M02 A3013 RMK A01 T00931015  RH  047%=      5-min Rain = 0
KPD2 160816Z 24005KT 09/M01 A3013 RMK A01 T00941014  RH  047%=      5-min Rain = 0
KPD2 160817Z 22002KT 09/M02 A3013 RMK A01 T00931015  RH  047%=      5-min Rain = 0
KPD2 160818Z 26006KT 09/M02 A3013 RMK A01 T00931015  RH  047%=      5-min Rain = 0
KPD2 160819Z 24004G9KT 09/M02 A3013 RMK A01 T00931015  RH  047%=      5-min Rain = 0
KPD2 160820Z 24006KT 09/M02 A3013 RMK A01 T00921015  RH  047%=      5-min Rain = 0
KPD2 160821Z 12003KT 09/M01 A3013 RMK A01 T00921014  RH  047%=      5-min Rain = 0
KPD2 160822Z 24005G11KT 09/M02 A3013 RMK A01 T00931015  RH  047%=      5-min Rain = 0
KPD2 160823Z 21006KT 09/M02 A3013 RMK A01 T00931015  RH  047%=      5-min Rain = 0
KPD2 160824Z 23004KT 09/M02 A3013 RMK A01 T00921015  RH  047%=      5-min Rain = 0
KPD2 160825Z 26003KT 09/M02 A3013 RMK A01 T00921015  RH  047%=      5-min Rain = 0
KPD2 160826Z 22008KT 09/M02 A3013 RMK A01 T00911015  RH  047%=      5-min Rain = 0
KPD2 160827Z 21008G14KT 09/M02 A3013 RMK A01 T00911015  RH  048%=      5-min Rain = 0
KPD2 160828Z 20003KT 09/M01 A3013 RMK A01 T00911014  RH  048%=      5-min Rain = 0
KPD2 160829Z 23004G11KT 09/M02 A3012 RMK A01 T00921015  RH  047%=      5-min Rain = 0
KPD2 160830Z 23007KT 09/M02 A3013 RMK A01 T00911015  RH  047%=      5-min Rain = 0
KPD2 160831Z 24006G11KT 09/M02 A3012 RMK A01 T00901015  RH  048%=      5-min Rain = 0
KPD2 160832Z 22006KT 09/M02 A3013 RMK A01 T00901015  RH  048%=      5-min Rain = 0
KPD2 160833Z 21006KT 09/M02 A3012 RMK A01 T00901015  RH  048%=      5-min Rain = 0
KPD2 160834Z 20005KT 09/M02 A3012 RMK A01 T00891015  RH  048%=      5-min Rain = 0
KPD2 160835Z 23006G13KT 09/M02 A3012 RMK A01 T00901015  RH  048%=      5-min Rain = 0
KPD2 160836Z 23005G10KT 09/M02 A3012 RMK A01 T00901015  RH  048%=      5-min Rain = 0
KPD2 160837Z 20005KT 09/M02 A3012 RMK A01 T00901015  RH  048%=      5-min Rain = 0
KPD2 160838Z 19005KT 09/M02 A3012 RMK A01 T00901015  RH  048%=      5-min Rain = 0
KPD2 160839Z 22004KT 09/M02 A3012 RMK A01 T00901015  RH  048%=      5-min Rain = 0
KPD2 160840Z 20007KT 09/M02 A3012 RMK A01 T00911015  RH  048%=      5-min Rain = 0
KPD2 160841Z 23008G13KT 09/M02 A3012 RMK A01 T00901015  RH  048%=      5-min Rain = 0
KPD2 160842Z 22006G15KT 09/M01 A3012 RMK A01 T00901014  RH  048%=      5-min Rain = 0
KPD2 160843Z 23008G15KT 09/M02 A3012 RMK A01 T00901015  RH  048%=      5-min Rain = 0
KPD2 160844Z 19004KT 09/M02 A3012 RMK A01 T00911015  RH  048%=      5-min Rain = 0
KPD2 160845Z 19006G12KT 09/M02 A3012 RMK A01 T00911015  RH  048%=      5-min Rain = 0
KPD2 160846Z 19004G10KT 09/M02 A3012 RMK A01 T00911015  RH  047%=      5-min Rain = 0
KPD2 160847Z 20007G12KT 09/M02 A3012 RMK A01 T00911015  RH  048%=      5-min Rain = 0
KPD2 160848Z 19003G8KT 09/M02 A3012 RMK A01 T00911015  RH  048%=      5-min Rain = 0
KPD2 160849Z 20003KT 09/M02 A3012 RMK A01 T00911015  RH  048%=      5-min Rain = 0
KPD2 160850Z 21009KT 09/M01 A3012 RMK A01 T00911014  RH  048%=      5-min Rain = 0
KPD2 160851Z 22007G13KT 09/M01 A3012 RMK A01 T00911014  RH  048%=      5-min Rain = 0
KPD2 160852Z 18006KT 09/M01 A3012 RMK A01 T00911014  RH  048%=      5-min Rain = 0
KPD2 160853Z 22009G17KT 09/M01 A3012 RMK A01 T00921014  RH  048%=      5-min Rain = 0
KPD2 160854Z 24012KT 09/M01 A3012 RMK A01 T00911014  RH  048%=      5-min Rain = 0
KPD2 160855Z 23006G11KT 09/M01 A3012 RMK A01 T00921013  RH  048%=      5-min Rain = 0
KPD2 160856Z 19004KT 09/M01 A3012 RMK A01 T00921013  RH  048%=      5-min Rain = 0
KPD2 160857Z 21004KT 09/M01 A3012 RMK A01 T00921013  RH  048%=      5-min Rain = 0
KPD2 160858Z 25007KT 09/M01 A3012 RMK A01 T00921013  RH  048%=      5-min Rain = 0
KPD2 160859Z 22005G10KT 09/M01 A3012 RMK A01 T00911013  RH  048%=      5-min Rain = 0
KPD2 160900Z 21004KT 09/M01 A3012 RMK A01 T00911013  RH  048%=      5-min Rain = 0
KPD2 160901Z 19006G11KT 09/M01 A3012 RMK A01 T00911013  RH  048%=      5-min Rain = 0
KPD2 160902Z 20007KT 09/M01 A3012 RMK A01 T00911013  RH  048%=      5-min Rain = 0
KPD2 160903Z 21006G13KT 09/M01 A3012 RMK A01 T00911013  RH  048%=      5-min Rain = 0
KPD2 160904Z 18007G12KT 09/M01 A3012 RMK A01 T00911013  RH  048%=      5-min Rain = 0
KPD2 160905Z 22005G10KT 09/M01 A3012 RMK A01 T00911013  RH  048%=      5-min Rain = 0
KPD2 160906Z 13004KT 09/M01 A3012 RMK A01 T00921013  RH  048%=      5-min Rain = 0
KPD2 160907Z 14004KT 09/M01 A3012 RMK A01 T00921013  RH  048%=      5-min Rain = 0
KPD2 160908Z 03002KT 09/M01 A3011 RMK A01 T00911013  RH  048%=      5-min Rain = 0
KPD2 160909Z 14003KT 09/M01 A3011 RMK A01 T00901014  RH  048%=      5-min Rain = 0
KPD2 160910Z 19006G15KT 09/M01 A3011 RMK A01 T00901013  RH  049%=      5-min Rain = 0
KPD2 160911Z 26002KT 09/M01 A3012 RMK A01 T00901013  RH  049%=      5-min Rain = 0
KPD2 160912Z 18003KT 09/M01 A3011 RMK A01 T00891013  RH  049%=      5-min Rain = 0
KPD2 160913Z 28002KT 09/M01 A3011 RMK A01 T00891013  RH  049%=      5-min Rain = 0
KPD2 160914Z 16005KT 09/M01 A3011 RMK A01 T00891012  RH  049%=      5-min Rain = 0
KPD2 160915Z 22005KT 09/M01 A3011 RMK A01 T00901012  RH  049%=      5-min Rain = 0
KPD2 160916Z 19003KT 09/M01 A3011 RMK A01 T00911012  RH  048%=      5-min Rain = 0
KPD2 160917Z 15007KT 09/M01 A3011 RMK A01 T00911012  RH  048%=      5-min Rain = 0
KPD2 160918Z 20008KT 09/M01 A3011 RMK A01 T00901012  RH  049%=      5-min Rain = 0
KPD2 160919Z 18009KT 09/M01 A3011 RMK A01 T00901012  RH  049%=      5-min Rain = 0
KPD2 160920Z 16005G10KT 09/M01 A3011 RMK A01 T00911012  RH  048%=      5-min Rain = 0
KPD2 160921Z 19002G7KT 09/M01 A3011 RMK A01 T00911012  RH  048%=      5-min Rain = 0
KPD2 160922Z 18007KT 09/M01 A3011 RMK A01 T00911012  RH  048%=      5-min Rain = 0
KPD2 160923Z 16003KT 09/M01 A3011 RMK A01 T00911012  RH  048%=      5-min Rain = 0
KPD2 160924Z 19004G9KT 09/M01 A3011 RMK A01 T00911013  RH  048%=      5-min Rain = 0
KPD2 160925Z 19003KT 09/M01 A3011 RMK A01 T00911012  RH  048%=      5-min Rain = 0
KPD2 160926Z 17005G10KT 09/M01 A3011 RMK A01 T00911013  RH  048%=      5-min Rain = 0
KPD2 160927Z 15007KT 09/M01 A3011 RMK A01 T00901012  RH  049%=      5-min Rain = 0
KPD2 160928Z 16005KT 09/M01 A3011 RMK A01 T00901013  RH  049%=      5-min Rain = 0
KPD2 160929Z 18007KT 09/M01 A3011 RMK A01 T00891013  RH  049%=      5-min Rain = 0
KPD2 160930Z 18006G11KT 09/M01 A3011 RMK A01 T00881013  RH  049%=      5-min Rain = 0
KPD2 160931Z 17006KT 09/M01 A3011 RMK A01 T00881013  RH  049%=      5-min Rain = 0
KPD2 160932Z 15005G12KT 09/M01 A3011 RMK A01 T00881012  RH  049%=      5-min Rain = 0
KPD2 160933Z 19009KT 09/M01 A3011 RMK A01 T00881013  RH  049%=      5-min Rain = 0
KPD2 160934Z 19004KT 09/M01 A3011 RMK A01 T00881013  RH  049%=      5-min Rain = 0
KPD2 160935Z 17003G8KT 09/M01 A3011 RMK A01 T00881012  RH  049%=      5-min Rain = 0
KPD2 160936Z 17005KT 09/M01 A3011 RMK A01 T00881012  RH  049%=      5-min Rain = 0
KPD2 160937Z 19006KT 09/M01 A3011 RMK A01 T00881012  RH  049%=      5-min Rain = 0
KPD2 160938Z 16006KT 09/M01 A3011 RMK A01 T00881012  RH  049%=      5-min Rain = 0
KPD2 160939Z 20007KT 09/M01 A3011 RMK A01 T00881012  RH  049%=      5-min Rain = 0
KPD2 160940Z 20008KT 09/M01 A3011 RMK A01 T00881012  RH  049%=      5-min Rain = 0
KPD2 160941Z 16006KT 09/M01 A3011 RMK A01 T00881012  RH  050%=      5-min Rain = 0
KPD2 160942Z 30003KT 09/M01 A3011 RMK A01 T00871013  RH  050%=      5-min Rain = 0
KPD2 160943Z 16002KT 09/M01 A3011 RMK A01 T00861013  RH  050%=      5-min Rain = 0
KPD2 160944Z 29001KT 09/M01 A3011 RMK A01 T00861012  RH  050%=      5-min Rain = 0
KPD2 160945Z 17005G10KT 09/M01 A3011 RMK A01 T00871012  RH  050%=      5-min Rain = 0
KPD2 160946Z 22006KT 09/M01 A3011 RMK A01 T00861012  RH  050%=      5-min Rain = 0
KPD2 160947Z 18003KT 09/M01 A3011 RMK A01 T00861012  RH  050%=      5-min Rain = 0
KPD2 160948Z 14005KT 09/M01 A3011 RMK A01 T00861012  RH  050%=      5-min Rain = 0
KPD2 160949Z 16009G15KT 09/M01 A301 RMK A01 T00861013  RH  050%=      5-min Rain = 0
KPD2 160950Z 17010KT 09/M01 A3011 RMK A01 T00861012  RH  050%=      5-min Rain = 0
KPD2 160951Z 15003KT 09/M01 A3011 RMK A01 T00871012  RH  050%=      5-min Rain = 0
KPD2 160952Z 13003KT 09/M01 A301 RMK A01 T00871012  RH  050%=      5-min Rain = 0
KPD2 160953Z 17005KT 09/M01 A3011 RMK A01 T00861012  RH  050%=      5-min Rain = 0
KPD2 160954Z 18008G14KT 09/M01 A3011 RMK A01 T00851013  RH  050%=      5-min Rain = 0
KPD2 160955Z 20006KT 09/M01 A3011 RMK A01 T00861012  RH  050%=      5-min Rain = 0
KPD2 160956Z 19004KT 09/M01 A3011 RMK A01 T00861012  RH  050%=      5-min Rain = 0
KPD2 160957Z 20003KT 09/M01 A3011 RMK A01 T00871012  RH  050%=      5-min Rain = 0
KPD2 160958Z 30004G13KT 09/M01 A3011 RMK A01 T00871012  RH  050%=      5-min Rain = 0
KPD2 160959Z 26005KT 09/M01 A3011 RMK A01 T00861012  RH  050%=      5-min Rain = 0
KPD2 161000Z 24003KT 09/M01 A3011 RMK A01 T00871011  RH  050%=      5-min Rain = 0
KPD2 161001Z 13002KT 09/M01 A3011 RMK A01 T00871012  RH  050%=      5-min Rain = 0
KPD2 161002Z 11001KT 09/M01 A3011 RMK A01 T00871011  RH  050%=      5-min Rain = 0
KPD2 161003Z 20001KT 09/M01 A3011 RMK A01 T00861012  RH  050%=      5-min Rain = 0
KPD2 161004Z 25000KT 09/M01 A3011 RMK A01 T00861011  RH  050%=      5-min Rain = 0
KPD2 161005Z 07002KT 09/M01 A3011 RMK A01 T00861011  RH  051%=      5-min Rain = 0
KPD2 161006Z 24010G21KT 09/M01 A3011 RMK A01 T00861011  RH  051%=      5-min Rain = 0
KPD2 161007Z 20008G13KT 09/M01 A3011 RMK A01 T00871010  RH  051%=      5-min Rain = 0
KPD2 161008Z 22003G8KT 09/M01 A3011 RMK A01 T00871010  RH  051%=      5-min Rain = 0
KPD2 161009Z 21002KT 09/M01 A3011 RMK A01 T00881010  RH  050%=      5-min Rain = 0
KPD2 161010Z 29002KT 09/M01 A3011 RMK A01 T00881010  RH  050%=      5-min Rain = 0
KPD2 161011Z 12003KT 09/M01 A3011 RMK A01 T00871010  RH  050%=      5-min Rain = 0
KPD2 161012Z 14001KT 09/M01 A3011 RMK A01 T00861010  RH  051%=      5-min Rain = 0
KPD2 161013Z 21002KT 09/M01 A3011 RMK A01 T00861010  RH  051%=      5-min Rain = 0
KPD2 161014Z 25004KT 09/M01 A3011 RMK A01 T00871009  RH  051%=      5-min Rain = 0
KPD2 161015Z 24005KT 09/M01 A3011 RMK A01 T00871009  RH  051%=      5-min Rain = 0
KPD2 161016Z 19002KT 09/M01 A3011 RMK A01 T00871008  RH  051%=      5-min Rain = 0
KPD2 161017Z 24003KT 09/M01 A3011 RMK A01 T00871008  RH  051%=      5-min Rain = 0
KPD2 161018Z 22002KT 09/M01 A3011 RMK A01 T00881008  RH  051%=      5-min Rain = 0
KPD2 161019Z 23002KT 09/M01 A3011 RMK A01 T00881008  RH  051%=      5-min Rain = 0
KPD2 161020Z 18007KT 09/M01 A3011 RMK A01 T00871009  RH  051%=      5-min Rain = 0
KPD2 161021Z 17007KT 09/M01 A3011 RMK A01 T00871008  RH  051%=      5-min Rain = 0
KPD2 161022Z 22006G11KT 09/M01 A3011 RMK A01 T00871009  RH  051%=      5-min Rain = 0
KPD2 161023Z 23006KT 09/M01 A3011 RMK A01 T00871008  RH  051%=      5-min Rain = 0
KPD2 161024Z 21005KT 09/M01 A3011 RMK A01 T00871008  RH  051%=      5-min Rain = 0
KPD2 161025Z 25006G13KT 09/M01 A3011 RMK A01 T00871008  RH  051%=      5-min Rain = 0
KPD2 161026Z 26006G11KT 09/M01 A3011 RMK A01 T00871007  RH  051%=      5-min Rain = 0
KPD2 161027Z 24003G8KT 09/M01 A3011 RMK A01 T00881007  RH  051%=      5-min Rain = 0
KPD2 161028Z 20004KT 09/M01 A3011 RMK A01 T00871007  RH  051%=      5-min Rain = 0
KPD2 161029Z 25006KT 09/M01 A3011 RMK A01 T00861008  RH  052%=      5-min Rain = 0
KPD2 161030Z 23007G12KT 09/M01 A3011 RMK A01 T00861007  RH  052%=      5-min Rain = 0
KPD2 161031Z 21006KT 09/M01 A3011 RMK A01 T00861007  RH  052%=      5-min Rain = 0
KPD2 161032Z 17004KT 09/M01 A3011 RMK A01 T00861008  RH  051%=      5-min Rain = 0
KPD2 161033Z 18002KT 09/M01 A3011 RMK A01 T00861008  RH  051%=      5-min Rain = 0
KPD2 161034Z 20002KT 09/M01 A3011 RMK A01 T00851009  RH  052%=      5-min Rain = 0
KPD2 161035Z 29001KT 09/M01 A3011 RMK A01 T00851008  RH  052%=      5-min Rain = 0
KPD2 161036Z 36001KT 09/M01 A3011 RMK A01 T00851008  RH  052%=      5-min Rain = 0
KPD2 161037Z 35001KT 09/M01 A3011 RMK A01 T00851007  RH  052%=      5-min Rain = 0
KPD2 161038Z 22007KT 09/M01 A3011 RMK A01 T00851007  RH  052%=      5-min Rain = 0
KPD2 161039Z 21006KT 09/M01 A3011 RMK A01 T00851007  RH  052%=      5-min Rain = 0
KPD2 161040Z 23001KT 09/M01 A3011 RMK A01 T00851007  RH  052%=      5-min Rain = 0
KPD2 161041Z 22007KT 08/M01 A3011 RMK A01 T00841008  RH  052%=      5-min Rain = 0
KPD2 161042Z 23010G15KT 08/M01 A3011 RMK A01 T00841007  RH  052%=      5-min Rain = 0
KPD2 161043Z 25007KT 08/M01 A3011 RMK A01 T00841008  RH  052%=      5-min Rain = 0
KPD2 161044Z 28006KT 08/M01 A3011 RMK A01 T00841007  RH  052%=      5-min Rain = 0
KPD2 161045Z 22005KT 08/M01 A3011 RMK A01 T00831008  RH  053%=      5-min Rain = 0
KPD2 161046Z 25005KT 08/M01 A3011 RMK A01 T00831008  RH  053%=      5-min Rain = 0
KPD2 161047Z 25005KT 08/M01 A3011 RMK A01 T00821008  RH  053%=      5-min Rain = 0
KPD2 161048Z 25006KT 08/M01 A3011 RMK A01 T00821008  RH  053%=      5-min Rain = 0
KPD2 161049Z 24005KT 08/M01 A3011 RMK A01 T00821008  RH  053%=      5-min Rain = 0
KPD2 161050Z 25007G13KT 08/M01 A3011 RMK A01 T00821008  RH  053%=      5-min Rain = 0
KPD2 161051Z 25009KT 08/M01 A3011 RMK A01 T00811008  RH  053%=      5-min Rain = 0
KPD2 161052Z 24006KT 08/M01 A3011 RMK A01 T00811008  RH  053%=      5-min Rain = 0
KPD2 161053Z 24006KT 08/M01 A301 RMK A01 T00811008  RH  053%=      5-min Rain = 0
KPD2 161054Z 24009G16KT 08/M01 A301 RMK A01 T00811008  RH  053%=      5-min Rain = 0
KPD2 161055Z 24009KT 08/M01 A301 RMK A01 T00821007  RH  053%=      5-min Rain = 0
KPD2 161056Z 23006KT 08/M01 A301 RMK A01 T00821007  RH  053%=      5-min Rain = 0
KPD2 161057Z 24005KT 08/M01 A301 RMK A01 T00821007  RH  053%=      5-min Rain = 0
KPD2 161058Z 23008KT 08/M01 A3011 RMK A01 T00821007  RH  053%=      5-min Rain = 0
KPD2 161059Z 22007G13KT 08/M01 A3011 RMK A01 T00821007  RH  053%=      5-min Rain = 0
KPD2 161100Z 24010KT 08/M01 A301 RMK A01 T00821007  RH  053%=      5-min Rain = 0
KPD2 161101Z 23007KT 08/M01 A301 RMK A01 T00821007  RH  053%=      5-min Rain = 0
KPD2 161102Z 22007KT 08/M01 A301 RMK A01 T00821007  RH  053%=      5-min Rain = 0
KPD2 161103Z 23007G12KT 08/M01 A301 RMK A01 T00821007  RH  053%=      5-min Rain = 0
KPD2 161104Z 23009G15KT 08/M01 A301 RMK A01 T00821007  RH  053%=      5-min Rain = 0
KPD2 161105Z 23011G17KT 08/M01 A301 RMK A01 T00821007  RH  054%=      5-min Rain = 0
KPD2 161106Z 24005G10KT 08/M01 A301 RMK A01 T00821007  RH  053%=      5-min Rain = 0
KPD2 161107Z 27007KT 08/M01 A301 RMK A01 T00821007  RH  053%=      5-min Rain = 0
KPD2 161108Z 25005KT 08/M01 A301 RMK A01 T00821007  RH  053%=      5-min Rain = 0
KPD2 161109Z 25005G11KT 08/M01 A301 RMK A01 T00821007  RH  053%=      5-min Rain = 0
KPD2 161110Z 25010G15KT 08/M01 A301 RMK A01 T00811007  RH  054%=      5-min Rain = 0
KPD2 161111Z 26006G12KT 08/M01 A301 RMK A01 T00811007  RH  054%=      5-min Rain = 0
KPD2 161112Z 26004KT 08/M01 A301 RMK A01 T00811007  RH  054%=      5-min Rain = 0
KPD2 161113Z 23005KT 08/M01 A301 RMK A01 T00811007  RH  054%=      5-min Rain = 0
KPD2 161114Z 25010G15KT 08/M01 A301 RMK A01 T00811007  RH  054%=      5-min Rain = 0
KPD2 161115Z 24010G15KT 08/M01 A301 RMK A01 T00811007  RH  054%=      5-min Rain = 0
KPD2 161116Z 25010G15KT 08/M01 A301 RMK A01 T00811006  RH  054%=      5-min Rain = 0
KPD2 161117Z 25011G17KT 08/M01 A301 RMK A01 T00811006  RH  054%=      5-min Rain = 0
KPD2 161118Z 25009KT 08/M01 A301 RMK A01 T00811006  RH  054%=      5-min Rain = 0
KPD2 161119Z 26008G14KT 08/M01 A3009 RMK A01 T00811006  RH  054%=      5-min Rain = 0
KPD2 161120Z 24007G13KT 08/M01 A3009 RMK A01 T00811006  RH  054%=      5-min Rain = 0
KPD2 161121Z 24010KT 08/M01 A3009 RMK A01 T00811007  RH  054%=      5-min Rain = 0
KPD2 161122Z 25009KT 08/M01 A3009 RMK A01 T00801007  RH  054%=      5-min Rain = 0
KPD2 161123Z 24008KT 08/M01 A3009 RMK A01 T00801006  RH  054%=      5-min Rain = 0
KPD2 161124Z 25012KT 08/M01 A3009 RMK A01 T00811006  RH  054%=      5-min Rain = 0
KPD2 161125Z 23011G17KT 08/M01 A3009 RMK A01 T00811006  RH  054%=      5-min Rain = 0
KPD2 161126Z 23008G14KT 08/M01 A3009 RMK A01 T00811006  RH  054%=      5-min Rain = 0
KPD2 161127Z 24009KT 08/M01 A3009 RMK A01 T00821006  RH  054%=      5-min Rain = 0
KPD2 161128Z 24010G15KT 08/M01 A3009 RMK A01 T00821006  RH  054%=      5-min Rain = 0
KPD2 161129Z 23010G15KT 08/M01 A3009 RMK A01 T00811006  RH  054%=      5-min Rain = 0
KPD2 161130Z 25009KT 08/M01 A3009 RMK A01 T00811006  RH  054%=      5-min Rain = 0
KPD2 161131Z 25007KT 08/M01 A3009 RMK A01 T00811006  RH  054%=      5-min Rain = 0
KPD2 161132Z 23007KT 08/M01 A3009 RMK A01 T00811006  RH  054%=      5-min Rain = 0
KPD2 161133Z 26008KT 08/M01 A3009 RMK A01 T00801006  RH  055%=      5-min Rain = 0
KPD2 161134Z 26007KT 08/M01 A3009 RMK A01 T00801006  RH  055%=      5-min Rain = 0
KPD2 161135Z 24011KT 08/M01 A3009 RMK A01 T00801006  RH  055%=      5-min Rain = 0
KPD2 161136Z 23010KT 08/M01 A3009 RMK A01 T00801005  RH  055%=      5-min Rain = 0
KPD2 161137Z 24011KT 08/M01 A3009 RMK A01 T00811005  RH  055%=      5-min Rain = 0
KPD2 161138Z 24010G15KT 08/M01 A3009 RMK A01 T00821005  RH  054%=      5-min Rain = 0
KPD2 161139Z 23010G17KT 08/M01 A3009 RMK A01 T00821005  RH  054%=      5-min Rain = 0
KPD2 161140Z 23011G17KT 08/M01 A3009 RMK A01 T00821005  RH  054%=      5-min Rain = 0
KPD2 161141Z 23010KT 08/M01 A3009 RMK A01 T00821005  RH  054%=      5-min Rain = 0
KPD2 161142Z 23009G16KT 08/M01 A3009 RMK A01 T00821005  RH  054%=      5-min Rain = 0
KPD2 161143Z 22005KT 08/M01 A3009 RMK A01 T00811005  RH  054%=      5-min Rain = 0
KPD2 161144Z 27004KT 08/M01 A3009 RMK A01 T00811006  RH  055%=      5-min Rain = 0
KPD2 161145Z 26004KT 08/M01 A3009 RMK A01 T00801006  RH  055%=      5-min Rain = 0
KPD2 161146Z 26004KT 08/M01 A3009 RMK A01 T00781008  RH  055%=      5-min Rain = 0
KPD2 161147Z 23007G13KT 08/M01 A3009 RMK A01 T00771006  RH  056%=      5-min Rain = 0
KPD2 161148Z 22007KT 08/M01 A3009 RMK A01 T00781005  RH  056%=      5-min Rain = 0
KPD2 161149Z 28004G9KT 08/M01 A3009 RMK A01 T00791005  RH  055%=      5-min Rain = 0
KPD2 161150Z 25003KT 08/M01 A3009 RMK A01 T00791005  RH  055%=      5-min Rain = 0
KPD2 161151Z 23007KT 08/M01 A3009 RMK A01 T00791006  RH  055%=      5-min Rain = 0
KPD2 161152Z 23004KT 08/M01 A3009 RMK A01 T00781005  RH  056%=      5-min Rain = 0
KPD2 161153Z 23005KT 08/M01 A3009 RMK A01 T00791005  RH  055%=      5-min Rain = 0
KPD2 161154Z 22009KT 08/M01 A3009 RMK A01 T00781006  RH  055%=      5-min Rain = 0
KPD2 161155Z 23005KT 08/M01 A3009 RMK A01 T00781005  RH  056%=      5-min Rain = 0
KPD2 161156Z 26006KT 08/M01 A3009 RMK A01 T00781006  RH  056%=      5-min Rain = 0
KPD2 161157Z 24005KT 08/M01 A3009 RMK A01 T00761007  RH  055%=      5-min Rain = 0
KPD2 161158Z 24004KT 08/M01 A3009 RMK A01 T00751007  RH  056%=      5-min Rain = 0
KPD2 161159Z 29003KT 07/M01 A3009 RMK A01 T00741007  RH  056%=      5-min Rain = 0
KPD2 161200Z 23002KT 07/M01 A3009 RMK A01 T00731008  RH  056%=      5-min Rain = 0
KPD2 161201Z 23008KT 07/M01 A3009 RMK A01 T00731008  RH  057%=      5-min Rain = 0
KPD2 161202Z 22006G12KT 07/M01 A3009 RMK A01 T00731006  RH  057%=      5-min Rain = 0
KPD2 161203Z 21009KT 07/M01 A3009 RMK A01 T00741006  RH  057%=      5-min Rain = 0
KPD2 161204Z 22003KT 08/M01 A3009 RMK A01 T00751006  RH  057%=      5-min Rain = 0
KPD2 161205Z 26003KT 08/M01 A3009 RMK A01 T00751006  RH  056%=      5-min Rain = 0
KPD2 161206Z 23005G14KT 07/M01 A3009 RMK A01 T00741007  RH  056%=      5-min Rain = 0
KPD2 161207Z 26006KT 07/M01 A3009 RMK A01 T00741007  RH  057%=      5-min Rain = 0
KPD2 161208Z 25005KT 07/M01 A3009 RMK A01 T00741006  RH  057%=      5-min Rain = 0
KPD2 161209Z 25004G9KT 07/M01 A3009 RMK A01 T00741006  RH  057%=      5-min Rain = 0
KPD2 161210Z 28006KT 07/M01 A3009 RMK A01 T00731007  RH  057%=      5-min Rain = 0
KPD2 161211Z 25006KT 07/M01 A3009 RMK A01 T00731006  RH  057%=      5-min Rain = 0
KPD2 161212Z 28004KT 07/M01 A3009 RMK A01 T00731007  RH  057%=      5-min Rain = 0
KPD2 161213Z 25001KT 07/M01 A3009 RMK A01 T00711008  RH  057%=      5-min Rain = 0
KPD2 161214Z 22002KT 07/M01 A3009 RMK A01 T00701008  RH  058%=      5-min Rain = 0
KPD2 161215Z 21005KT 07/M01 A3009 RMK A01 T00701007  RH  058%=      5-min Rain = 0
KPD2 161216Z 24004KT 07/M01 A3009 RMK A01 T00711007  RH  058%=      5-min Rain = 0
KPD2 161217Z 24003KT 07/M01 A3009 RMK A01 T00711007  RH  058%=      5-min Rain = 0
KPD2 161218Z 23004KT 07/M01 A3009 RMK A01 T00711007  RH  058%=      5-min Rain = 0
KPD2 161219Z 26004KT 07/M01 A3009 RMK A01 T00711007  RH  058%=      5-min Rain = 0
KPD2 161220Z 30003KT 07/M01 A3009 RMK A01 T00711007  RH  058%=      5-min Rain = 0
KPD2 161221Z 34004KT 07/M01 A3009 RMK A01 T00711007  RH  058%=      5-min Rain = 0
KPD2 161222Z 18003KT 07/M01 A3009 RMK A01 T00711007  RH  058%=      5-min Rain = 0
KPD2 161223Z 23008KT 07/M01 A3008 RMK A01 T00711007  RH  058%=      5-min Rain = 0
KPD2 161224Z 28005KT 07/M01 A3009 RMK A01 T00701008  RH  058%=      5-min Rain = 0
KPD2 161225Z 28004KT 07/M01 A3009 RMK A01 T00681009  RH  058%=      5-min Rain = 0
KPD2 161226Z 26003KT 07/M01 A3009 RMK A01 T00661009  RH  059%=      5-min Rain = 0
KPD2 161227Z 23002KT 07/M01 A3009 RMK A01 T00651009  RH  059%=      5-min Rain = 0
KPD2 161228Z 21000KT 07/M01 A3009 RMK A01 T00651008  RH  060%=      5-min Rain = 0
KPD2 161229Z 25000KT 07/M01 A3009 RMK A01 T00661007  RH  060%=      5-min Rain = 0
KPD2 161230Z 11003KT 07/M01 A3009 RMK A01 T00671008  RH  059%=      5-min Rain = 0
KPD2 161231Z 02004KT 07/M01 A3008 RMK A01 T00671007  RH  059%=      5-min Rain = 0
KPD2 161232Z 30004KT 07/M01 A3009 RMK A01 T00661009  RH  059%=      5-min Rain = 0
KPD2 161233Z 26004KT 06/M01 A3009 RMK A01 T00641010  RH  059%=      5-min Rain = 0
KPD2 161234Z 20003KT 06/M01 A3009 RMK A01 T00621010  RH  060%=      5-min Rain = 0
KPD2 161235Z 26001KT 06/M01 A3008 RMK A01 T00621009  RH  060%=      5-min Rain = 0
KPD2 161236Z 34001KT 06/M01 A3008 RMK A01 T00631008  RH  060%=      5-min Rain = 0
KPD2 161237Z 30003KT 06/M01 A3008 RMK A01 T00631009  RH  060%=      5-min Rain = 0
KPD2 161238Z 27002KT 06/M01 A3008 RMK A01 T00611010  RH  060%=      5-min Rain = 0
KPD2 161239Z 29002KT 06/M01 A3008 RMK A01 T00601010  RH  061%=      5-min Rain = 0
KPD2 161240Z 29002KT 06/M01 A3008 RMK A01 T00591010  RH  061%=      5-min Rain = 0
KPD2 161241Z 27000KT 06/M01 A3008 RMK A01 T00581011  RH  061%=      5-min Rain = 0
KPD2 161242Z 29000KT 06/M01 A3008 RMK A01 T00571010  RH  062%=      5-min Rain = 0
KPD2 161243Z 29000KT 06/M01 A3008 RMK A01 T00561010  RH  062%=      5-min Rain = 0
KPD2 161244Z 29000KT 06/M01 A3008 RMK A01 T00561011  RH  062%=      5-min Rain = 0
KPD2 161245Z 29001KT 06/M01 A3008 RMK A01 T00561010  RH  062%=      5-min Rain = 0
KPD2 161246Z 29000KT 06/M01 A3008 RMK A01 T00551010  RH  063%=      5-min Rain = 0
KPD2 161247Z 29000KT 06/M01 A3008 RMK A01 T00551010  RH  063%=      5-min Rain = 0
KPD2 161248Z 28002KT 05/M01 A3008 RMK A01 T00541012  RH  063%=      5-min Rain = 0
KPD2 161249Z 31000KT 05/M01 A3008 RMK A01 T00531011  RH  063%=      5-min Rain = 0
KPD2 161250Z 31003KT 05/M01 A3008 RMK A01 T00531010  RH  064%=      5-min Rain = 0
KPD2 161251Z 27003KT 05/M01 A3008 RMK A01 T00541011  RH  063%=      5-min Rain = 0
KPD2 161252Z 27003KT 05/M01 A3009 RMK A01 T00521012  RH  063%=      5-min Rain = 0
KPD2 161253Z 28004KT 05/M01 A3009 RMK A01 T00511013  RH  063%=      5-min Rain = 0
KPD2 161254Z 28001KT 05/M01 A3009 RMK A01 T00511012  RH  064%=      5-min Rain = 0
KPD2 161255Z 17003KT 05/M01 A3009 RMK A01 T00511012  RH  064%=      5-min Rain = 0
KPD2 161256Z 28002KT 05/M01 A3009 RMK A01 T00511012  RH  064%=      5-min Rain = 0
KPD2 161257Z 27003KT 05/M01 A3009 RMK A01 T00511010  RH  064%=      5-min Rain = 0
KPD2 161258Z 27004KT 05/M01 A3009 RMK A01 T00521011  RH  064%=      5-min Rain = 0
KPD2 161259Z 26003KT 05/M01 A3009 RMK A01 T00511012  RH  064%=      5-min Rain = 0
KPD2 161300Z 26002KT 05/M01 A3009 RMK A01 T00501012  RH  064%=      5-min Rain = 0
KPD2 161301Z 26003KT 05/M01 A3009 RMK A01 T00491013  RH  064%=      5-min Rain = 0
KPD2 161302Z 27002KT 05/M01 A3009 RMK A01 T00481014  RH  064%=      5-min Rain = 0
KPD2 161303Z 28001KT 05/M01 A3009 RMK A01 T00471014  RH  065%=      5-min Rain = 0
KPD2 161304Z 28001KT 05/M01 A3009 RMK A01 T00461013  RH  065%=      5-min Rain = 0
KPD2 161305Z 28000KT 05/M01 A3009 RMK A01 T00461013  RH  066%=      5-min Rain = 0
KPD2 161306Z 00000KT 05/M01 A3009 RMK A01 T00461012  RH  066%=      5-min Rain = 0
KPD2 161307Z 35001KT 05/M01 A3009 RMK A01 T00461012  RH  066%=      5-min Rain = 0
KPD2 161308Z 01002KT 05/M01 A3009 RMK A01 T00461012  RH  066%=      5-min Rain = 0
KPD2 161309Z 34003KT 05/M01 A3009 RMK A01 T00451013  RH  066%=      5-min Rain = 0
KPD2 161310Z 31003KT 05/M01 A3009 RMK A01 T00451013  RH  066%=      5-min Rain = 0
KPD2 161311Z 31003KT 05/M01 A3009 RMK A01 T00451013  RH  066%=      5-min Rain = 0
KPD2 161312Z 31002KT 05/M01 A3009 RMK A01 T00451013  RH  066%=      5-min Rain = 0
KPD2 161313Z 31001KT 04/M01 A3009 RMK A01 T00441013  RH  066%=      5-min Rain = 0
KPD2 161314Z 31002KT 04/M01 A3009 RMK A01 T00441014  RH  066%=      5-min Rain = 0
KPD2 161315Z 31002KT 04/M01 A3009 RMK A01 T00431014  RH  066%=      5-min Rain = 0
KPD2 161316Z 31000KT 04/M01 A3009 RMK A01 T00431013  RH  067%=      5-min Rain = 0
KPD2 161317Z 31001KT 04/M01 A3009 RMK A01 T00431012  RH  067%=      5-min Rain = 0
KPD2 161318Z 31002KT 04/M01 A3009 RMK A01 T00431012  RH  067%=      5-min Rain = 0
KPD2 161319Z 34002KT 04/M01 A3009 RMK A01 T00441011  RH  067%=      5-min Rain = 0
KPD2 161320Z 34002KT 05/M01 A3009 RMK A01 T00451011  RH  067%=      5-min Rain = 0
KPD2 161321Z 33002KT 05/M01 A3009 RMK A01 T00451011  RH  067%=      5-min Rain = 0
KPD2 161322Z 34002KT 05/M01 A3009 RMK A01 T00451011  RH  067%=      5-min Rain = 0
KPD2 161323Z 33001KT 05/M01 A3009 RMK A01 T00451011  RH  067%=      5-min Rain = 0
KPD2 161324Z 33001KT 04/M01 A3009 RMK A01 T00441012  RH  067%=      5-min Rain = 0
KPD2 161325Z 00000KT 04/M01 A3009 RMK A01 T00441011  RH  067%=      5-min Rain = 0
KPD2 161326Z 03002KT 05/M01 A3009 RMK A01 T00461009  RH  067%=      5-min Rain = 0
KPD2 161327Z 03000KT 05/M01 A3009 RMK A01 T00501007  RH  067%=      5-min Rain = 0
KPD2 161328Z 01001KT 05/M01 A3009 RMK A01 T00501011  RH  065%=      5-min Rain = 0
KPD2 161329Z 00000KT 05/M01 A3009 RMK A01 T00491011  RH  065%=      5-min Rain = 0
KPD2 161330Z 00000KT 05/M01 A3009 RMK A01 T00481011  RH  065%=      5-min Rain = 0
KPD2 161331Z 04000KT 05/M01 A3009 RMK A01 T00481012  RH  065%=      5-min Rain = 0
KPD2 161332Z 06002KT 05/M01 A3008 RMK A01 T00481010  RH  066%=      5-min Rain = 0
KPD2 161333Z 11002KT 05/M01 A3008 RMK A01 T00501009  RH  066%=      5-min Rain = 0
KPD2 161334Z 24001KT 05/M01 A3008 RMK A01 T00501010  RH  065%=      5-min Rain = 0
KPD2 161335Z 19002KT 05/M01 A3009 RMK A01 T00501011  RH  065%=      5-min Rain = 0
KPD2 161336Z 11002KT 05/M01 A3008 RMK A01 T00501009  RH  066%=      5-min Rain = 0
KPD2 161337Z 15002KT 05/M01 A3008 RMK A01 T00521007  RH  066%=      5-min Rain = 0
KPD2 161338Z 19004KT 05/M01 A3008 RMK A01 T00541007  RH  065%=      5-min Rain = 0
KPD2 161339Z 22002KT 06/M01 A3008 RMK A01 T00551007  RH  064%=      5-min Rain = 0
KPD2 161340Z 23004KT 06/M01 A3009 RMK A01 T00571007  RH  064%=      5-min Rain = 0
KPD2 161341Z 24002KT 06/M01 A3009 RMK A01 T00581006  RH  064%=      5-min Rain = 0
KPD2 161342Z 18003KT 06/M01 A3009 RMK A01 T00601005  RH  063%=      5-min Rain = 0
KPD2 161343Z 21004KT 06/M00 A3009 RMK A01 T00631004  RH  062%=      5-min Rain = 0
KPD2 161344Z 25003KT 06/M01 A3009 RMK A01 T00631007  RH  061%=      5-min Rain = 0
KPD2 161345Z 24002KT 06/M01 A3009 RMK A01 T00601010  RH  061%=      5-min Rain = 0
KPD2 161346Z 23005KT 06/M01 A3009 RMK A01 T00581009  RH  062%=      5-min Rain = 0
KPD2 161347Z 18001KT 06/M01 A3009 RMK A01 T00591007  RH  063%=      5-min Rain = 0
KPD2 161348Z 22002KT 06/M01 A3009 RMK A01 T00611005  RH  063%=      5-min Rain = 0
KPD2 161349Z 26002KT 06/M01 A3009 RMK A01 T00621006  RH  062%=      5-min Rain = 0
KPD2 161350Z 28001KT 06/M01 A3009 RMK A01 T00601010  RH  061%=      5-min Rain = 0
KPD2 161351Z 28001KT 06/M01 A3009 RMK A01 T00571011  RH  062%=      5-min Rain = 0
KPD2 161352Z 28001KT 06/M01 A3009 RMK A01 T00561010  RH  062%=      5-min Rain = 0
KPD2 161353Z 28001KT 06/M01 A3009 RMK A01 T00551011  RH  063%=      5-min Rain = 0
KPD2 161354Z 00000KT 05/M01 A3009 RMK A01 T00541010  RH  063%=      5-min Rain = 0
KPD2 161355Z 28000KT 05/M01 A3009 RMK A01 T00521010  RH  064%=      5-min Rain = 0
KPD2 161356Z 00000KT 05/M01 A3009 RMK A01 T00521010  RH  064%=      5-min Rain = 0
KPD2 161357Z 28000KT 05/M01 A3009 RMK A01 T00501011  RH  065%=      5-min Rain = 0
KPD2 161358Z 28001KT 05/M01 A3009 RMK A01 T00501011  RH  065%=      5-min Rain = 0
KPD2 161359Z 28000KT 05/M01 A3009 RMK A01 T00491011  RH  065%=      5-min Rain = 0
KPD2 161400Z 32001KT 05/M01 A3009 RMK A01 T00481011  RH  066%=      5-min Rain = 0
KPD2 161401Z 03002KT 05/M01 A3009 RMK A01 T00481010  RH  066%=      5-min Rain = 0
KPD2 161402Z 30002KT 05/M01 A3009 RMK A01 T00471011  RH  066%=      5-min Rain = 0
KPD2 161403Z 35002KT 05/M01 A3009 RMK A01 T00491008  RH  067%=      5-min Rain = 0
KPD2 161404Z 35000KT 05/M01 A3009 RMK A01 T00501008  RH  066%=      5-min Rain = 0
KPD2 161405Z 00000KT 05/M01 A3009 RMK A01 T00511008  RH  066%=      5-min Rain = 0
KPD2 161406Z 00000KT 05/M01 A3009 RMK A01 T00511009  RH  065%=      5-min Rain = 0
KPD2 161407Z 00000KT 05/M01 A3009 RMK A01 T00511009  RH  065%=      5-min Rain = 0
KPD2 161408Z 01001KT 05/M01 A3009 RMK A01 T00511008  RH  065%=      5-min Rain = 0
KPD2 161409Z 05000KT 05/M01 A3009 RMK A01 T00511008  RH  065%=      5-min Rain = 0
KPD2 161410Z 28001KT 05/M01 A3009 RMK A01 T00521007  RH  065%=      5-min Rain = 0
KPD2 161411Z 26000KT 05/M01 A3009 RMK A01 T00531007  RH  065%=      5-min Rain = 0
KPD2 161412Z 25000KT 05/M01 A3009 RMK A01 T00541007  RH  065%=      5-min Rain = 0
KPD2 161413Z 15002KT 06/M01 A3009 RMK A01 T00551006  RH  065%=      5-min Rain = 0
KPD2 161414Z 14002KT 06/M01 A3009 RMK A01 T00571005  RH  064%=      5-min Rain = 0
KPD2 161415Z 14001KT 06/M00 A3009 RMK A01 T00601004  RH  064%=      5-min Rain = 0
KPD2 161416Z 14000KT 06/M00 A3009 RMK A01 T00611004  RH  063%=      5-min Rain = 0
KPD2 161417Z 11001KT 06/M00 A3009 RMK A01 T00621004  RH  062%=      5-min Rain = 0
KPD2 161418Z 01002KT 06/M00 A3009 RMK A01 T00641003  RH  062%=      5-min Rain = 0
KPD2 161419Z 11002KT 07/M00 A3009 RMK A01 T00671001  RH  062%=      5-min Rain = 0
KPD2 161420Z 14001KT 07/M00 A3009 RMK A01 T00691001  RH  061%=      5-min Rain = 0
KPD2 161421Z 12003KT 07/M00 A3009 RMK A01 T00701002  RH  060%=      5-min Rain = 0
KPD2 161422Z 08003KT 07/M00 A3009 RMK A01 T00711002  RH  060%=      5-min Rain = 0
KPD2 161423Z 02001KT 07/M00 A3009 RMK A01 T00721001  RH  060%=      5-min Rain = 0
KPD2 161424Z 17001KT 07/M00 A3009 RMK A01 T00721002  RH  060%=      5-min Rain = 0
KPD2 161425Z 09004KT 07/M00 A3009 RMK A01 T00721002  RH  060%=      5-min Rain = 0
KPD2 161426Z 13004KT 07/M00 A3009 RMK A01 T00721001  RH  060%=      5-min Rain = 0
KPD2 161427Z 17005KT 07/M00 A3009 RMK A01 T00721001  RH  060%=      5-min Rain = 0
KPD2 161428Z 19003KT 07/M00 A3009 RMK A01 T00721002  RH  060%=      5-min Rain = 0
KPD2 161429Z 13003KT 07/M00 A3009 RMK A01 T00721002  RH  059%=      5-min Rain = 0
KPD2 161430Z 14003KT 07/M00 A3009 RMK A01 T00721002  RH  059%=      5-min Rain = 0
KPD2 161431Z 15002KT 07/M00 A3009 RMK A01 T00721002  RH  059%=      5-min Rain = 0
KPD2 161432Z 16002KT 07/M00 A3009 RMK A01 T00721001  RH  059%=      5-min Rain = 0
KPD2 161433Z 18003KT 07/M00 A3009 RMK A01 T00721001  RH  060%=      5-min Rain = 0
KPD2 161434Z 20004KT 07/M00 A3009 RMK A01 T00721001  RH  060%=      5-min Rain = 0
KPD2 161435Z 21002KT 07/M00 A3009 RMK A01 T00721001  RH  060%=      5-min Rain = 0
KPD2 161436Z 22002KT 07/M00 A3009 RMK A01 T00721001  RH  059%=      5-min Rain = 0
KPD2 161437Z 16003G9KT 07/M00 A3009 RMK A01 T00721002  RH  059%=      5-min Rain = 0
KPD2 161438Z 16006KT 07/M00 A3009 RMK A01 T00731002  RH  059%=      5-min Rain = 0
KPD2 161439Z 24004KT 07/M00 A3009 RMK A01 T00731001  RH  059%=      5-min Rain = 0
KPD2 161440Z 23004KT 07/M00 A3009 RMK A01 T00741001  RH  059%=      5-min Rain = 0
KPD2 161441Z 25003KT 08/00 A3009 RMK A01 T007500-0  RH  059%=      5-min Rain = 0
KPD2 161442Z 20002KT 08/00 A3009 RMK A01 T007500-0  RH  059%=      5-min Rain = 0
KPD2 161443Z 14002KT 08/00 A3009 RMK A01 T007600-0  RH  059%=      5-min Rain = 0
KPD2 161444Z 17003KT 08/00 A3009 RMK A01 T00770001  RH  058%=      5-min Rain = 0
KPD2 161445Z 17002KT 08/00 A3009 RMK A01 T00770000  RH  058%=      5-min Rain = 0
KPD2 161446Z 15002KT 08/00 A3009 RMK A01 T00780000  RH  058%=      5-min Rain = 0
KPD2 161447Z 14000KT 08/00 A3009 RMK A01 T007800-0  RH  058%=      5-min Rain = 0
KPD2 161448Z 16000KT 08/00 A3009 RMK A01 T00790001  RH  058%=      5-min Rain = 0
KPD2 161449Z 14002KT 08/00 A3009 RMK A01 T00800002  RH  058%=      5-min Rain = 0
KPD2 161450Z 14001KT 08/00 A3009 RMK A01 T00810002  RH  057%=      5-min Rain = 0
KPD2 161451Z 14001KT 08/00 A3009 RMK A01 T00820002  RH  057%=      5-min Rain = 0
KPD2 161452Z 00000KT 08/00 A3009 RMK A01 T00830001  RH  056%=      5-min Rain = 0
KPD2 161453Z 11001KT 08/00 A3009 RMK A01 T00830001  RH  056%=      5-min Rain = 0
KPD2 161454Z 08002KT 08/00 A3009 RMK A01 T00830000  RH  056%=      5-min Rain = 0
KPD2 161455Z 05001KT 08/00 A3009 RMK A01 T00830001  RH  056%=      5-min Rain = 0
KPD2 161456Z 05001KT 08/00 A3009 RMK A01 T00840001  RH  056%=      5-min Rain = 0
KPD2 161457Z 05002KT 09/00 A3009 RMK A01 T00850003  RH  056%=      5-min Rain = 0
KPD2 161458Z 05001KT 09/00 A3009 RMK A01 T00860003  RH  056%=      5-min Rain = 0
KPD2 161459Z 07002KT 09/00 A3009 RMK A01 T00880003  RH  055%=      5-min Rain = 0
KPD2 161500Z 14003KT 09/00 A3009 RMK A01 T00880003  RH  055%=      5-min Rain = 0
KPD2 161501Z 15004KT 09/00 A3009 RMK A01 T00890003  RH  055%=      5-min Rain = 0
KPD2 161502Z 14003KT 09/00 A3009 RMK A01 T00890003  RH  055%=      5-min Rain = 0
KPD2 161503Z 12002KT 09/00 A3009 RMK A01 T00890003  RH  055%=      5-min Rain = 0
KPD2 161504Z 12004KT 09/00 A3008 RMK A01 T00900003  RH  055%=      5-min Rain = 0
KPD2 161505Z 16004KT 09/00 A3008 RMK A01 T00910004  RH  055%=      5-min Rain = 0
KPD2 161506Z 15004KT 09/00 A3008 RMK A01 T00910004  RH  054%=      5-min Rain = 0
KPD2 161507Z 15002KT 09/00 A3008 RMK A01 T00920004  RH  054%=      5-min Rain = 0
KPD2 161508Z 17001KT 09/00 A3008 RMK A01 T00920003  RH  054%=      5-min Rain = 0
KPD2 161509Z 07001KT 09/00 A3008 RMK A01 T00930004  RH  054%=      5-min Rain = 0
KPD2 161510Z 06002KT 09/01 A3008 RMK A01 T00940006  RH  054%=      5-min Rain = 0
KPD2 161511Z 04002KT 10/01 A3008 RMK A01 T00960006  RH  053%=      5-min Rain = 0
KPD2 161512Z 05001KT 10/01 A3008 RMK A01 T00980007  RH  053%=      5-min Rain = 0
KPD2 161513Z 12002KT 10/01 A3008 RMK A01 T01000007  RH  052%=      5-min Rain = 0
KPD2 161514Z 20002KT 10/01 A3008 RMK A01 T01020007  RH  052%=      5-min Rain = 0
KPD2 161515Z 33001KT 10/01 A3008 RMK A01 T01030006  RH  051%=      5-min Rain = 0
KPD2 161516Z 36002KT 10/01 A3008 RMK A01 T01030006  RH  051%=      5-min Rain = 0
KPD2 161517Z 07002KT 10/01 A3008 RMK A01 T01030007  RH  051%=      5-min Rain = 0
KPD2 161518Z 09003KT 11/01 A3008 RMK A01 T01050008  RH  051%=      5-min Rain = 0
KPD2 161519Z 07002KT 11/01 A3007 RMK A01 T01070008  RH  050%=      5-min Rain = 0
KPD2 161520Z 07001KT 11/01 A3007 RMK A01 T01070006  RH  050%=      5-min Rain = 0
KPD2 161521Z 08001KT 11/01 A3007 RMK A01 T01060005  RH  050%=      5-min Rain = 0
KPD2 161522Z 11002KT 11/01 A3007 RMK A01 T01060006  RH  050%=      5-min Rain = 0
KPD2 161523Z 09003KT 11/01 A3007 RMK A01 T01080007  RH  050%=      5-min Rain = 0
KPD2 161524Z 02002KT 11/01 A3007 RMK A01 T01090009  RH  050%=      5-min Rain = 0
KPD2 161525Z 36002KT 11/01 A3007 RMK A01 T01100007  RH  049%=      5-min Rain = 0
KPD2 161526Z 04001KT 11/01 A3007 RMK A01 T01100006  RH  049%=      5-min Rain = 0
KPD2 161527Z 24001KT 11/01 A3007 RMK A01 T01100008  RH  049%=      5-min Rain = 0
KPD2 161528Z 01001KT 11/01 A3007 RMK A01 T01120008  RH  049%=      5-min Rain = 0
KPD2 161529Z 08001KT 11/01 A3007 RMK A01 T01130008  RH  048%=      5-min Rain = 0
KPD2 161530Z 12003KT 12/01 A3007 RMK A01 T01150009  RH  048%=      5-min Rain = 0
KPD2 161531Z 13004KT 12/01 A3007 RMK A01 T01160008  RH  047%=      5-min Rain = 0
KPD2 161532Z 12004KT 11/01 A3007 RMK A01 T01140007  RH  048%=      5-min Rain = 0
KPD2 161533Z 08002KT 11/01 A3007 RMK A01 T01120009  RH  049%=      5-min Rain = 0
KPD2 161534Z 15002KT 11/01 A3007 RMK A01 T01120010  RH  049%=      5-min Rain = 0
KPD2 161535Z 21002KT 11/01 A3007 RMK A01 T01120009  RH  049%=      5-min Rain = 0
KPD2 161536Z 16001KT 11/01 A3007 RMK A01 T01130010  RH  049%=      5-min Rain = 0
KPD2 161537Z 26000KT 12/01 A3007 RMK A01 T01150010  RH  049%=      5-min Rain = 0
KPD2 161538Z 26002KT 12/01 A3007 RMK A01 T01150009  RH  048%=      5-min Rain = 0
KPD2 161539Z 27002KT 12/01 A3007 RMK A01 T01150010  RH  048%=      5-min Rain = 0
KPD2 161540Z 28001KT 12/01 A3007 RMK A01 T01150009  RH  048%=      5-min Rain = 0
KPD2 161541Z 00000KT 11/01 A3007 RMK A01 T01140009  RH  048%=      5-min Rain = 0
KPD2 161542Z 00000KT 12/01 A3007 RMK A01 T01150010  RH  048%=      5-min Rain = 0
KPD2 161543Z 18001KT 12/01 A3007 RMK A01 T01150010  RH  048%=      5-min Rain = 0
KPD2 161544Z 10002KT 12/01 A3007 RMK A01 T01160009  RH  048%=      5-min Rain = 0
KPD2 161545Z 08002KT 12/01 A3007 RMK A01 T01160012  RH  049%=      5-min Rain = 0
KPD2 161546Z 04001KT 12/01 A3007 RMK A01 T01170012  RH  048%=      5-min Rain = 0
KPD2 161547Z 01002KT 12/01 A3007 RMK A01 T01180012  RH  048%=      5-min Rain = 0
KPD2 161548Z 02001KT 12/01 A3007 RMK A01 T01190012  RH  048%=      5-min Rain = 0
KPD2 161549Z 28001KT 12/01 A3007 RMK A01 T01200012  RH  047%=      5-min Rain = 0
KPD2 161550Z 27001KT 12/01 A3007 RMK A01 T01190009  RH  047%=      5-min Rain = 0
KPD2 161551Z 05003KT 12/01 A3007 RMK A01 T01180010  RH  047%=      5-min Rain = 0
KPD2 161552Z 20004KT 12/01 A3007 RMK A01 T01170011  RH  048%=      5-min Rain = 0
KPD2 161553Z 22003KT 12/01 A3007 RMK A01 T01170011  RH  048%=      5-min Rain = 0
KPD2 161554Z 21001KT 12/01 A3007 RMK A01 T01170011  RH  048%=      5-min Rain = 0
KPD2 161555Z 23000KT 12/01 A3007 RMK A01 T01170010  RH  048%=      5-min Rain = 0
KPD2 161556Z 14001KT 12/01 A3007 RMK A01 T01180011  RH  048%=      5-min Rain = 0
KPD2 161557Z 12001KT 12/01 A3007 RMK A01 T01190012  RH  048%=      5-min Rain = 0
KPD2 161558Z 11002KT 12/01 A3007 RMK A01 T01210013  RH  048%=      5-min Rain = 0
KPD2 161559Z 11004KT 12/01 A3007 RMK A01 T01220013  RH  047%=      5-min Rain = 0
KPD2 161600Z 12003KT 12/01 A3007 RMK A01 T01220013  RH  047%=      5-min Rain = 0
KPD2 161601Z 12004KT 12/01 A3007 RMK A01 T01230013  RH  047%=      5-min Rain = 0
KPD2 161602Z 12003KT 12/01 A3007 RMK A01 T01240013  RH  047%=      5-min Rain = 0
KPD2 161603Z 10003KT 13/01 A3007 RMK A01 T01250013  RH  047%=      5-min Rain = 0
KPD2 161604Z 07002KT 13/02 A3007 RMK A01 T01260016  RH  047%=      5-min Rain = 0
KPD2 161605Z 09002KT 13/02 A3007 RMK A01 T01290016  RH  046%=      5-min Rain = 0
KPD2 161606Z 06002KT 13/02 A3007 RMK A01 T01310015  RH  045%=      5-min Rain = 0
KPD2 161607Z 11002KT 13/02 A3007 RMK A01 T01320015  RH  045%=      5-min Rain = 0
KPD2 161608Z 11003KT 13/01 A3007 RMK A01 T01320013  RH  044%=      5-min Rain = 0
KPD2 161609Z 12003KT 13/01 A3007 RMK A01 T01320014  RH  044%=      5-min Rain = 0
KPD2 161610Z 12003KT 13/01 A3007 RMK A01 T01330014  RH  044%=      5-min Rain = 0
KPD2 161611Z 09002KT 13/01 A3007 RMK A01 T01340014  RH  044%=      5-min Rain = 0
KPD2 161612Z 11003KT 14/01 A3007 RMK A01 T01350014  RH  044%=      5-min Rain = 0
KPD2 161613Z 09001KT 14/02 A3006 RMK A01 T01360015  RH  044%=      5-min Rain = 0
KPD2 161614Z 10002KT 14/01 A3007 RMK A01 T01370013  RH  043%=      5-min Rain = 0
KPD2 161615Z 08004KT 14/01 A3006 RMK A01 T01370013  RH  043%=      5-min Rain = 0
KPD2 161616Z 08001KT 14/01 A3006 RMK A01 T01370013  RH  043%=      5-min Rain = 0
KPD2 161617Z 06002KT 14/01 A3006 RMK A01 T01380014  RH  043%=      5-min Rain = 0
KPD2 161618Z 08002KT 14/02 A3006 RMK A01 T01390015  RH  043%=      5-min Rain = 0
KPD2 161619Z 14000KT 14/01 A3006 RMK A01 T01400013  RH  042%=      5-min Rain = 0
KPD2 161620Z 14001KT 14/01 A3006 RMK A01 T01400013  RH  042%=      5-min Rain = 0
KPD2 161621Z 08002KT 14/01 A3006 RMK A01 T01400014  RH  042%=      5-min Rain = 0
KPD2 161622Z 07002KT 14/02 A3006 RMK A01 T01430016  RH  042%=      5-min Rain = 0
KPD2 161623Z 09002KT 15/02 A3006 RMK A01 T01450016  RH  042%=      5-min Rain = 0
KPD2 161624Z 10001KT 15/02 A3006 RMK A01 T01470015  RH  041%=      5-min Rain = 0
KPD2 161625Z 04002KT 15/02 A3006 RMK A01 T01480016  RH  041%=      5-min Rain = 0
KPD2 161626Z 02003KT 15/02 A3005 RMK A01 T01510019  RH  041%=      5-min Rain = 0
KPD2 161627Z 05002KT 16/02 A3005 RMK A01 T01550018  RH  040%=      5-min Rain = 0
KPD2 161628Z 10002KT 16/02 A3005 RMK A01 T01580019  RH  039%=      5-min Rain = 0
KPD2 161629Z 18003KT 16/02 A3005 RMK A01 T01610020  RH  038%=      5-min Rain = 0
KPD2 161630Z 12004KT 16/02 A3005 RMK A01 T01630018  RH  038%=      5-min Rain = 0
KPD2 161631Z 14004KT 16/02 A3005 RMK A01 T01640018  RH  037%=      5-min Rain = 0
KPD2 161632Z 19005KT 16/02 A3005 RMK A01 T01640017  RH  037%=      5-min Rain = 0
KPD2 161633Z 16004KT 16/01 A3005 RMK A01 T01640011  RH  035%=      5-min Rain = 0
KPD2 161634Z 14004KT 16/01 A3005 RMK A01 T01630012  RH  036%=      5-min Rain = 0
KPD2 161635Z 08002KT 16/01 A3005 RMK A01 T01610014  RH  037%=      5-min Rain = 0
KPD2 161636Z 10003KT 16/02 A3005 RMK A01 T01600015  RH  037%=      5-min Rain = 0
KPD2 161637Z 10004KT 16/02 A3005 RMK A01 T01620016  RH  037%=      5-min Rain = 0
KPD2 161638Z 09005KT 16/02 A3005 RMK A01 T01640016  RH  037%=      5-min Rain = 0
KPD2 161639Z 10004KT 17/02 A3005 RMK A01 T01650016  RH  036%=      5-min Rain = 0
KPD2 161640Z 18004KT 17/02 A3005 RMK A01 T01660016  RH  036%=      5-min Rain = 0
KPD2 161641Z 19003KT 17/01 A3005 RMK A01 T01650011  RH  035%=      5-min Rain = 0
KPD2 161642Z 20005KT 17/01 A3005 RMK A01 T01650009  RH  035%=      5-min Rain = 0
KPD2 161643Z 21005KT 17/01 A3004 RMK A01 T01680010  RH  035%=      5-min Rain = 0
KPD2 161644Z 26004KT 17/01 A3004 RMK A01 T01690008  RH  034%=      5-min Rain = 0
KPD2 161645Z 15004KT 17/01 A3004 RMK A01 T01690010  RH  034%=      5-min Rain = 0
KPD2 161646Z 12006KT 17/02 A3004 RMK A01 T01700015  RH  035%=      5-min Rain = 0
KPD2 161647Z 11005KT 17/02 A3004 RMK A01 T01690017  RH  036%=      5-min Rain = 0
KPD2 161648Z 11005KT 17/02 A3004 RMK A01 T01700018  RH  036%=      5-min Rain = 0
KPD2 161649Z 08004KT 17/02 A3004 RMK A01 T01720018  RH  035%=      5-min Rain = 0
KPD2 161650Z 07004KT 17/02 A3004 RMK A01 T01740017  RH  035%=      5-min Rain = 0
KPD2 161651Z 10004KT 17/02 A3004 RMK A01 T01740017  RH  035%=      5-min Rain = 0
KPD2 161652Z 14004KT 17/01 A3004 RMK A01 T01740014  RH  034%=      5-min Rain = 0
KPD2 161653Z 11003KT 17/01 A3004 RMK A01 T01740014  RH  034%=      5-min Rain = 0
KPD2 161654Z 23001KT 18/01 A3004 RMK A01 T01770013  RH  033%=      5-min Rain = 0
KPD2 161655Z 15002G7KT 18/01 A3004 RMK A01 T01770011  RH  033%=      5-min Rain = 0
KPD2 161656Z 15006KT 18/01 A3004 RMK A01 T01790013  RH  033%=      5-min Rain = 0
KPD2 161657Z 15007KT 18/02 A3004 RMK A01 T01810015  RH  033%=      5-min Rain = 0
KPD2 161658Z 17007KT 18/01 A3004 RMK A01 T01810013  RH  032%=      5-min Rain = 0
KPD2 161659Z 13004KT 18/01 A3004 RMK A01 T01810007  RH  031%=      5-min Rain = 0
KPD2 161700Z 18004KT 18/01 A3004 RMK A01 T01810007  RH  031%=      5-min Rain = 0
KPD2 161701Z 18007KT 18/01 A3004 RMK A01 T01820008  RH  031%=      5-min Rain = 0
KPD2 161702Z 18010KT 18/01 A3004 RMK A01 T01820007  RH  031%=      5-min Rain = 0
KPD2 161703Z 19008KT 18/01 A3004 RMK A01 T01810006  RH  031%=      5-min Rain = 0
KPD2 161704Z 20009KT 18/01 A3004 RMK A01 T01810006  RH  031%=      5-min Rain = 0
KPD2 161705Z 18006KT 18/01 A3004 RMK A01 T01800005  RH  031%=      5-min Rain = 0
KPD2 161706Z 17004KT 18/01 A3004 RMK A01 T01800005  RH  031%=      5-min Rain = 0
KPD2 161707Z 19005KT 18/01 A3004 RMK A01 T01810005  RH  031%=      5-min Rain = 0
KPD2 161708Z 16004KT 18/01 A3004 RMK A01 T01810007  RH  031%=      5-min Rain = 0
KPD2 161709Z 14007KT 18/01 A3004 RMK A01 T01810010  RH  032%=      5-min Rain = 0
KPD2 161710Z 16007KT 18/01 A3004 RMK A01 T01840011  RH  031%=      5-min Rain = 0
KPD2 161711Z 18008KT 19/01 A3004 RMK A01 T01850010  RH  031%=      5-min Rain = 0
KPD2 161712Z 18007KT 19/01 A3004 RMK A01 T01850009  RH  030%=      5-min Rain = 0
KPD2 161713Z 15009KT 18/01 A3004 RMK A01 T01840007  RH  030%=      5-min Rain = 0
KPD2 161714Z 18009KT 18/01 A3004 RMK A01 T01830008  RH  031%=      5-min Rain = 0
KPD2 161715Z 18010G15KT 18/01 A3004 RMK A01 T01830007  RH  030%=      5-min Rain = 0
KPD2 161716Z 19009KT 18/01 A3004 RMK A01 T01830007  RH  030%=      5-min Rain = 0
KPD2 161717Z 18007KT 18/01 A3004 RMK A01 T01830007  RH  031%=      5-min Rain = 0
KPD2 161718Z 19006KT 18/01 A3003 RMK A01 T01830006  RH  030%=      5-min Rain = 0
KPD2 161719Z 19007KT 18/01 A3003 RMK A01 T01830005  RH  030%=      5-min Rain = 0
KPD2 161720Z 18007G12KT 18/01 A3003 RMK A01 T01820006  RH  031%=      5-min Rain = 0
KPD2 161721Z 20009KT 18/01 A3003 RMK A01 T01840007  RH  030%=      5-min Rain = 0
KPD2 161722Z 19008KT 19/01 A3003 RMK A01 T01850006  RH  030%=      5-min Rain = 0
KPD2 161723Z 19007KT 18/01 A3003 RMK A01 T01840005  RH  030%=      5-min Rain = 0
KPD2 161724Z 19005KT 18/01 A3003 RMK A01 T01830006  RH  030%=      5-min Rain = 0
KPD2 161725Z 17005KT 18/01 A3003 RMK A01 T01830007  RH  031%=      5-min Rain = 0
KPD2 161726Z 19004KT 18/01 A3003 RMK A01 T01840007  RH  030%=      5-min Rain = 0
KPD2 161727Z 21008KT 19/01 A3003 RMK A01 T01860008  RH  030%=      5-min Rain = 0
KPD2 161728Z 20006KT 19/01 A3003 RMK A01 T01880010  RH  030%=      5-min Rain = 0
KPD2 161729Z 21002KT 19/01 A3002 RMK A01 T01900009  RH  030%=      5-min Rain = 0
KPD2 161730Z 20002KT 19/01 A3002 RMK A01 T01920010  RH  029%=      5-min Rain = 0
KPD2 161731Z 21003KT 19/01 A3002 RMK A01 T01940010  RH  029%=      5-min Rain = 0
KPD2 161732Z 22003KT 20/01 A3002 RMK A01 T01950009  RH  029%=      5-min Rain = 0
KPD2 161733Z 20005KT 20/01 A3002 RMK A01 T01970012  RH  029%=      5-min Rain = 0
KPD2 161734Z 20007KT 20/01 A3002 RMK A01 T01990012  RH  029%=      5-min Rain = 0
KPD2 161735Z 18007KT 20/01 A3002 RMK A01 T01990010  RH  028%=      5-min Rain = 0
KPD2 161736Z 20007KT 20/01 A3002 RMK A01 T01990009  RH  028%=      5-min Rain = 0
KPD2 161737Z 20005KT 20/01 A3002 RMK A01 T01990007  RH  028%=      5-min Rain = 0
KPD2 161738Z 20004KT 20/01 A3002 RMK A01 T01970007  RH  028%=      5-min Rain = 0
KPD2 161739Z 22003KT 20/01 A3002 RMK A01 T01960009  RH  029%=      5-min Rain = 0
KPD2 161740Z 16005KT 20/01 A3002 RMK A01 T01980009  RH  028%=      5-min Rain = 0
KPD2 161741Z 16007KT 20/01 A3002 RMK A01 T01990008  RH  028%=      5-min Rain = 0
KPD2 161742Z 16006KT 20/01 A3002 RMK A01 T01990008  RH  028%=      5-min Rain = 0
KPD2 161743Z 18006KT 20/01 A3002 RMK A01 T02000009  RH  028%=      5-min Rain = 0
KPD2 161744Z 19007KT 20/01 A3002 RMK A01 T02000008  RH  028%=      5-min Rain = 0
KPD2 161745Z 19007KT 20/01 A3002 RMK A01 T02000008  RH  028%=      5-min Rain = 0
KPD2 161746Z 18009KT 20/01 A3002 RMK A01 T02000008  RH  028%=      5-min Rain = 0
KPD2 161747Z 18008KT 20/01 A3001 RMK A01 T02000007  RH  028%=      5-min Rain = 0
KPD2 161748Z 18007KT 20/01 A3002 RMK A01 T02000008  RH  028%=      5-min Rain = 0
KPD2 161749Z 19006KT 20/01 A3001 RMK A01 T02010007  RH  027%=      5-min Rain = 0
KPD2 161750Z 17007KT 20/01 A3001 RMK A01 T02000008  RH  028%=      5-min Rain = 0
KPD2 161751Z 17008KT 20/01 A3001 RMK A01 T01990007  RH  028%=      5-min Rain = 0
KPD2 161752Z 18009KT 20/01 A3001 RMK A01 T01990008  RH  028%=      5-min Rain = 0
KPD2 161753Z 19009KT 20/01 A3001 RMK A01 T01980008  RH  028%=      5-min Rain = 0
KPD2 161754Z 19007KT 20/01 A3001 RMK A01 T01980007  RH  028%=      5-min Rain = 0
KPD2 161755Z 20008KT 20/01 A3001 RMK A01 T01980008  RH  028%=      5-min Rain = 0
KPD2 161756Z 20006G11KT 20/01 A3001 RMK A01 T01990008  RH  028%=      5-min Rain = 0
KPD2 161757Z 19006KT 20/01 A3001 RMK A01 T02000008  RH  028%=      5-min Rain = 0
KPD2 161758Z 20005KT 20/01 A3001 RMK A01 T02000008  RH  028%=      5-min Rain = 0
KPD2 161759Z 22004KT 20/01 A30 RMK A01 T02000008  RH  028%=      5-min Rain = 0
KPD2 161800Z 18004KT 20/01 A30 RMK A01 T02000008  RH  028%=      5-min Rain = 0
KPD2 161801Z 16006KT 20/01 A30 RMK A01 T02020009  RH  028%=      5-min Rain = 0
KPD2 161802Z 17007KT 20/01 A30 RMK A01 T02020008  RH  027%=      5-min Rain = 0
KPD2 161803Z 17005KT 20/01 A30 RMK A01 T02030009  RH  027%=      5-min Rain = 0
KPD2 161804Z 16007KT 20/01 A30 RMK A01 T02030009  RH  027%=      5-min Rain = 0
KPD2 161805Z 17008KT 20/01 A30 RMK A01 T02030009  RH  027%=      5-min Rain = 0
KPD2 161806Z 21006KT 20/01 A30 RMK A01 T02030009  RH  027%=      5-min Rain = 0
KPD2 161807Z 20005KT 20/01 A30 RMK A01 T02030009  RH  027%=      5-min Rain = 0
KPD2 161808Z 21004KT 20/01 A30 RMK A01 T02020009  RH  028%=      5-min Rain = 0
KPD2 161809Z 19007KT 20/01 A30 RMK A01 T02030011  RH  028%=      5-min Rain = 0
KPD2 161810Z 20009KT 20/01 A30 RMK A01 T02040010  RH  027%=      5-min Rain = 0
KPD2 161811Z 20006KT 20/01 A30 RMK A01 T02040010  RH  027%=      5-min Rain = 0
KPD2 161812Z 19003KT 20/01 A30 RMK A01 T02030010  RH  028%=      5-min Rain = 0
KPD2 161813Z 20004KT 20/01 A30 RMK A01 T02030010  RH  027%=      5-min Rain = 0
KPD2 161814Z 19003KT 20/01 A30 RMK A01 T02030012  RH  028%=      5-min Rain = 0
KPD2 161815Z 19006KT 21/01 A2999 RMK A01 T02050011  RH  028%=      5-min Rain = 0
KPD2 161816Z 18005KT 21/01 A2999 RMK A01 T02050011  RH  027%=      5-min Rain = 0
KPD2 161817Z 17005KT 21/01 A2999 RMK A01 T02050010  RH  027%=      5-min Rain = 0
KPD2 161818Z 17004KT 20/01 A2999 RMK A01 T02040011  RH  028%=      5-min Rain = 0
KPD2 161819Z 17004KT 21/01 A2999 RMK A01 T02050011  RH  028%=      5-min Rain = 0
KPD2 161820Z 15004KT 21/01 A2999 RMK A01 T02060012  RH  027%=      5-min Rain = 0
KPD2 161821Z 18007KT 21/01 A2999 RMK A01 T02070011  RH  027%=      5-min Rain = 0
KPD2 161822Z 17009KT 21/01 A2999 RMK A01 T02070011  RH  027%=      5-min Rain = 0
KPD2 161823Z 14008KT 21/01 A2999 RMK A01 T02070011  RH  027%=      5-min Rain = 0
KPD2 161824Z 15007KT 21/01 A2999 RMK A01 T02080011  RH  027%=      5-min Rain = 0
KPD2 161825Z 16006KT 21/01 A2999 RMK A01 T02090010  RH  027%=      5-min Rain = 0
KPD2 161826Z 17008KT 21/01 A2999 RMK A01 T02100011  RH  027%=      5-min Rain = 0
KPD2 161827Z 21006KT 21/01 A2999 RMK A01 T02100010  RH  026%=      5-min Rain = 0
KPD2 161828Z 22004KT 21/01 A2999 RMK A01 T02100009  RH  026%=      5-min Rain = 0
KPD2 161829Z 22002KT 21/01 A2998 RMK A01 T02090009  RH  026%=      5-min Rain = 0
KPD2 161830Z 20006KT 21/01 A2998 RMK A01 T02090009  RH  026%=      5-min Rain = 0
KPD2 161831Z 20008G13KT 21/01 A2998 RMK A01 T02080008  RH  026%=      5-min Rain = 0
KPD2 161832Z 18008KT 21/01 A2998 RMK A01 T02070007  RH  026%=      5-min Rain = 0
KPD2 161833Z 19010G15KT 21/01 A2998 RMK A01 T02080007  RH  026%=      5-min Rain = 0
KPD2 161834Z 17007KT 21/01 A2998 RMK A01 T02090005  RH  026%=      5-min Rain = 0
KPD2 161835Z 18006KT 21/01 A2998 RMK A01 T02100007  RH  026%=      5-min Rain = 0
KPD2 161836Z 19006KT 21/01 A2998 RMK A01 T02110007  RH  026%=      5-min Rain = 0
KPD2 161837Z 22005KT 21/01 A2998 RMK A01 T02130006  RH  025%=      5-min Rain = 0
KPD2 161838Z 18008KT 21/01 A2998 RMK A01 T02140007  RH  025%=      5-min Rain = 0
KPD2 161839Z 18007KT 21/01 A2998 RMK A01 T02140006  RH  025%=      5-min Rain = 0
KPD2 161840Z 17007KT 21/01 A2998 RMK A01 T02130006  RH  025%=      5-min Rain = 0
KPD2 161841Z 16009KT 21/01 A2997 RMK A01 T02130005  RH  025%=      5-min Rain = 0
KPD2 161842Z 20007KT 22/01 A2997 RMK A01 T02150007  RH  025%=      5-min Rain = 0
KPD2 161843Z 20010KT 22/01 A2997 RMK A01 T02160006  RH  025%=      5-min Rain = 0
KPD2 161844Z 18006KT 22/01 A2997 RMK A01 T02160005  RH  025%=      5-min Rain = 0
KPD2 161845Z 20007KT 22/01 A2997 RMK A01 T02150006  RH  025%=      5-min Rain = 0
KPD2 161846Z 18006KT 22/01 A2997 RMK A01 T02150006  RH  025%=      5-min Rain = 0
KPD2 161847Z 16006KT 22/01 A2997 RMK A01 T02150005  RH  025%=      5-min Rain = 0
KPD2 161848Z 15007KT 22/00 A2997 RMK A01 T02160004  RH  024%=      5-min Rain = 0
KPD2 161849Z 18008G13KT 22/00 A2997 RMK A01 T02160004  RH  024%=      5-min Rain = 0
KPD2 161850Z 20010KT 22/00 A2997 RMK A01 T02170003  RH  024%=      5-min Rain = 0
KPD2 161851Z 21008KT 22/00 A2996 RMK A01 T02160003  RH  024%=      5-min Rain = 0
KPD2 161852Z 19004KT 22/00 A2996 RMK A01 T02170004  RH  024%=      5-min Rain = 0
KPD2 161853Z 15002KT 22/00 A2996 RMK A01 T02180003  RH  024%=      5-min Rain = 0
KPD2 161854Z 16002KT 22/00 A2996 RMK A01 T02200004  RH  024%=      5-min Rain = 0
KPD2 161855Z 14003KT 22/00 A2996 RMK A01 T02210004  RH  024%=      5-min Rain = 0
KPD2 161856Z 15005KT 22/01 A2996 RMK A01 T02220006  RH  024%=      5-min Rain = 0
KPD2 161857Z 16007KT 22/01 A2996 RMK A01 T02240007  RH  024%=      5-min Rain = 0
KPD2 161858Z 16008KT 22/01 A2996 RMK A01 T02220005  RH  024%=      5-min Rain = 0
KPD2 161859Z 16007KT 22/00 A2996 RMK A01 T02210004  RH  024%=      5-min Rain = 0
KPD2 161900Z 16005KT 22/00 A2996 RMK A01 T02190002  RH  024%=      5-min Rain = 0
KPD2 161901Z 17008G13KT 22/00 A2995 RMK A01 T02180004  RH  024%=      5-min Rain = 0
KPD2 161902Z 19008KT 22/00 A2996 RMK A01 T02190004  RH  024%=      5-min Rain = 0
KPD2 161903Z 17007KT 22/00 A2996 RMK A01 T02190003  RH  024%=      5-min Rain = 0
KPD2 161904Z 19007KT 22/00 A2995 RMK A01 T02180003  RH  024%=      5-min Rain = 0
KPD2 161905Z 20010KT 22/00 A2995 RMK A01 T02180003  RH  024%=      5-min Rain = 0
KPD2 161906Z 18006KT 22/00 A2995 RMK A01 T02170004  RH  024%=      5-min Rain = 0
KPD2 161907Z 19007KT 22/01 A2995 RMK A01 T02180005  RH  024%=      5-min Rain = 0
KPD2 161908Z 18008KT 22/00 A2995 RMK A01 T02200004  RH  024%=      5-min Rain = 0
KPD2 161909Z 16007KT 22/00 A2995 RMK A01 T02200004  RH  024%=      5-min Rain = 0
KPD2 161910Z 17005KT 22/00 A2995 RMK A01 T02200003  RH  024%=      5-min Rain = 0
KPD2 161911Z 16009KT 22/00 A2995 RMK A01 T02190003  RH  024%=      5-min Rain = 0
KPD2 161912Z 18008KT 22/00 A2995 RMK A01 T02200002  RH  023%=      5-min Rain = 0
KPD2 161913Z 16006G11KT 22/00 A2995 RMK A01 T02200002  RH  023%=      5-min Rain = 0
KPD2 161914Z 16006KT 22/00 A2995 RMK A01 T02200002  RH  023%=      5-min Rain = 0
KPD2 161915Z 15009KT 22/00 A2995 RMK A01 T02200001  RH  023%=      5-min Rain = 0
KPD2 161916Z 16005KT 22/M00 A2995 RMK A01 T02201001  RH  023%=      5-min Rain = 0
KPD2 161917Z 14004KT 22/M00 A2995 RMK A01 T02191001  RH  023%=      5-min Rain = 0
KPD2 161918Z 17006KT 22/00 A2995 RMK A01 T02200001  RH  023%=      5-min Rain = 0
KPD2 161919Z 18007KT 22/00 A2995 RMK A01 T02210000  RH  023%=      5-min Rain = 0
KPD2 161920Z 20005KT 22/00 A2995 RMK A01 T02210001  RH  023%=      5-min Rain = 0
KPD2 161921Z 18004KT 22/00 A2995 RMK A01 T02220003  RH  023%=      5-min Rain = 0
KPD2 161922Z 16006KT 23/00 A2995 RMK A01 T02250003  RH  023%=      5-min Rain = 0
KPD2 161923Z 18006G11KT 23/00 A2995 RMK A01 T02250001  RH  023%=      5-min Rain = 0
KPD2 161924Z 18008KT 22/00 A2995 RMK A01 T02230001  RH  023%=      5-min Rain = 0
KPD2 161925Z 18007KT 22/00 A2995 RMK A01 T02230001  RH  023%=      5-min Rain = 0
KPD2 161926Z 16003KT 22/M00 A2994 RMK A01 T02231001  RH  023%=      5-min Rain = 0
KPD2 161927Z 20004KT 22/00 A2994 RMK A01 T02230002  RH  023%=      5-min Rain = 0
KPD2 161928Z 16004KT 22/00 A2994 RMK A01 T02240002  RH  023%=      5-min Rain = 0
KPD2 161929Z 15006KT 23/00 A2994 RMK A01 T02250004  RH  023%=      5-min Rain = 0
KPD2 161930Z 13007KT 23/00 A2994 RMK A01 T02270004  RH  023%=      5-min Rain = 0
KPD2 161931Z 17008KT 23/00 A2994 RMK A01 T02280002  RH  022%=      5-min Rain = 0
KPD2 161932Z 17008KT 23/00 A2994 RMK A01 T02280002  RH  022%=      5-min Rain = 0
KPD2 161933Z 15005KT 23/00 A2994 RMK A01 T02270001  RH  022%=      5-min Rain = 0
KPD2 161934Z 16005KT 23/00 A2994 RMK A01 T02270001  RH  022%=      5-min Rain = 0
KPD2 161935Z 17006KT 23/00 A2994 RMK A01 T02280002  RH  022%=      5-min Rain = 0
KPD2 161936Z 19007KT 23/00 A2994 RMK A01 T02290003  RH  022%=      5-min Rain = 0
KPD2 161937Z 19006KT 23/00 A2994 RMK A01 T02290004  RH  023%=      5-min Rain = 0
KPD2 161938Z 18008KT 23/00 A2994 RMK A01 T02300004  RH  022%=      5-min Rain = 0
KPD2 161939Z 18010KT 23/00 A2994 RMK A01 T02310004  RH  022%=      5-min Rain = 0
KPD2 161940Z 18006KT 23/01 A2994 RMK A01 T02310005  RH  022%=      5-min Rain = 0
KPD2 161941Z 16009KT 23/00 A2994 RMK A01 T02300004  RH  022%=      5-min Rain = 0
KPD2 161942Z 18008G13KT 23/00 A2994 RMK A01 T02300003  RH  022%=      5-min Rain = 0
KPD2 161943Z 16005KT 23/00 A2994 RMK A01 T02290002  RH  022%=      5-min Rain = 0
KPD2 161944Z 17008KT 23/00 A2993 RMK A01 T02290002  RH  022%=      5-min Rain = 0
KPD2 161945Z 17009KT 23/00 A2993 RMK A01 T02290001  RH  022%=      5-min Rain = 0
KPD2 161946Z 15006KT 23/M00 A2993 RMK A01 T02271001  RH  022%=      5-min Rain = 0
KPD2 161947Z 16005KT 23/00 A2993 RMK A01 T022700-0  RH  022%=      5-min Rain = 0
KPD2 161948Z 20003KT 23/00 A2993 RMK A01 T022700-0  RH  022%=      5-min Rain = 0
KPD2 161949Z 21007KT 23/00 A2993 RMK A01 T02280003  RH  022%=      5-min Rain = 0
KPD2 161950Z 20008KT 23/00 A2993 RMK A01 T02300004  RH  022%=      5-min Rain = 0
KPD2 161951Z 21006G11KT 23/00 A2993 RMK A01 T02300004  RH  022%=      5-min Rain = 0
KPD2 161952Z 21004KT 23/00 A2993 RMK A01 T02300004  RH  022%=      5-min Rain = 0
KPD2 161953Z 18007KT 23/00 A2993 RMK A01 T02320004  RH  022%=      5-min Rain = 0
KPD2 161954Z 17008KT 23/01 A2993 RMK A01 T02320005  RH  022%=      5-min Rain = 0
KPD2 161955Z 17008KT 23/01 A2993 RMK A01 T02310005  RH  023%=      5-min Rain = 0
KPD2 161956Z 18007KT 23/01 A2993 RMK A01 T02300005  RH  023%=      5-min Rain = 0
KPD2 161957Z 16007KT 23/01 A2993 RMK A01 T02280005  RH  023%=      5-min Rain = 0
KPD2 161958Z 19007KT 23/01 A2993 RMK A01 T02280005  RH  023%=      5-min Rain = 0
KPD2 161959Z 19010KT 23/00 A2993 RMK A01 T02270002  RH  023%=      5-min Rain = 0
KPD2 162000Z 18007KT 22/00 A2993 RMK A01 T02240000  RH  023%=      5-min Rain = 0
KPD2 162001Z 17009KT 22/00 A2993 RMK A01 T02230001  RH  023%=      5-min Rain = 0
KPD2 162002Z 18007KT 22/00 A2993 RMK A01 T02230000  RH  023%=      5-min Rain = 0
KPD2 162003Z 16008G13KT 22/M00 A2993 RMK A01 T02211002  RH  023%=      5-min Rain = 0
KPD2 162004Z 16009KT 22/M00 A2993 RMK A01 T02211001  RH  023%=      5-min Rain = 0
KPD2 162005Z 14006G12KT 22/M00 A2993 RMK A01 T02201002  RH  023%=      5-min Rain = 0
KPD2 162006Z 16003KT 22/M00 A2992 RMK A01 T02211001  RH  023%=      5-min Rain = 0
KPD2 162007Z 18002KT 22/00 A2992 RMK A01 T022000-0  RH  023%=      5-min Rain = 0
KPD2 162008Z 19006KT 22/00 A2992 RMK A01 T02210001  RH  023%=      5-min Rain = 0
KPD2 162009Z 20006KT 22/00 A2992 RMK A01 T02220001  RH  023%=      5-min Rain = 0
KPD2 162010Z 20005KT 22/00 A2992 RMK A01 T02210000  RH  023%=      5-min Rain = 0
KPD2 162011Z 19006KT 22/00 A2992 RMK A01 T02210002  RH  023%=      5-min Rain = 0
KPD2 162012Z 19006KT 22/00 A2992 RMK A01 T02210001  RH  023%=      5-min Rain = 0
KPD2 162013Z 16007KT 22/00 A2992 RMK A01 T02210003  RH  023%=      5-min Rain = 0
KPD2 162014Z 18004KT 22/00 A2992 RMK A01 T02210003  RH  023%=      5-min Rain = 0
KPD2 162015Z 17003KT 22/00 A2992 RMK A01 T02210002  RH  023%=      5-min Rain = 0
KPD2 162016Z 14002KT 22/00 A2992 RMK A01 T02220004  RH  024%=      5-min Rain = 0
KPD2 162017Z 18005KT 22/01 A2992 RMK A01 T02220005  RH  024%=      5-min Rain = 0
KPD2 162018Z 18004KT 22/01 A2992 RMK A01 T02220005  RH  024%=      5-min Rain = 0
KPD2 162019Z 14008KT 22/01 A2992 RMK A01 T02200006  RH  024%=      5-min Rain = 0
KPD2 162020Z 14008KT 22/01 A2992 RMK A01 T02190007  RH  024%=      5-min Rain = 0
KPD2 162021Z 16008KT 22/01 A2992 RMK A01 T02190008  RH  025%=      5-min Rain = 0
KPD2 162022Z 15008KT 22/01 A2992 RMK A01 T02180008  RH  025%=      5-min Rain = 0
KPD2 162023Z 14009KT 22/01 A2992 RMK A01 T02180008  RH  025%=      5-min Rain = 0
KPD2 162024Z 15010KT 22/01 A2992 RMK A01 T02170008  RH  025%=      5-min Rain = 0
KPD2 162025Z 15008KT 22/01 A2992 RMK A01 T02160008  RH  025%=      5-min Rain = 0
KPD2 162026Z 15011KT 22/01 A2992 RMK A01 T02150008  RH  025%=      5-min Rain = 0
KPD2 162027Z 15011KT 21/01 A2992 RMK A01 T02140007  RH  025%=      5-min Rain = 0
KPD2 162028Z 15010KT 21/01 A2992 RMK A01 T02130006  RH  025%=      5-min Rain = 0
KPD2 162029Z 14006KT 21/01 A2992 RMK A01 T02120006  RH  025%=      5-min Rain = 0
KPD2 162030Z 15009KT 21/01 A2992 RMK A01 T02110007  RH  026%=      5-min Rain = 0
KPD2 162031Z 14009KT 21/01 A2992 RMK A01 T02110007  RH  026%=      5-min Rain = 0
KPD2 162032Z 14009KT 21/01 A2991 RMK A01 T02110007  RH  026%=      5-min Rain = 0
KPD2 162033Z 14010G15KT 21/01 A2991 RMK A01 T02120007  RH  026%=      5-min Rain = 0
KPD2 162034Z 15010KT 21/01 A2991 RMK A01 T02120006  RH  025%=      5-min Rain = 0
KPD2 162035Z 14009KT 21/01 A2991 RMK A01 T02120007  RH  025%=      5-min Rain = 0
KPD2 162036Z 15010KT 21/01 A2991 RMK A01 T02120007  RH  025%=      5-min Rain = 0
KPD2 162037Z 13009KT 21/01 A2991 RMK A01 T02120006  RH  025%=      5-min Rain = 0
KPD2 162038Z 15011KT 21/01 A2991 RMK A01 T02120007  RH  026%=      5-min Rain = 0
KPD2 162039Z 15010KT 21/01 A2991 RMK A01 T02120008  RH  026%=      5-min Rain = 0
KPD2 162040Z 15010KT 21/01 A2991 RMK A01 T02110007  RH  026%=      5-min Rain = 0
KPD2 162041Z 13009G15KT 21/01 A2991 RMK A01 T02110007  RH  026%=      5-min Rain = 0
KPD2 162042Z 14010KT 21/01 A2991 RMK A01 T02100007  RH  026%=      5-min Rain = 0
KPD2 162043Z 13008G13KT 21/01 A2991 RMK A01 T02100006  RH  026%=      5-min Rain = 0
KPD2 162044Z 16007KT 21/01 A2991 RMK A01 T02100007  RH  026%=      5-min Rain = 0
KPD2 162045Z 14010KT 21/01 A2991 RMK A01 T02100007  RH  026%=      5-min Rain = 0
KPD2 162046Z 15011KT 21/01 A2991 RMK A01 T02100005  RH  026%=      5-min Rain = 0
KPD2 162047Z 15010KT 21/01 A2991 RMK A01 T02090005  RH  026%=      5-min Rain = 0
KPD2 162048Z 15011KT 21/01 A2991 RMK A01 T02080005  RH  026%=      5-min Rain = 0
KPD2 162049Z 14010KT 21/01 A2991 RMK A01 T02080005  RH  026%=      5-min Rain = 0
KPD2 162050Z 15010KT 21/01 A2991 RMK A01 T02080005  RH  026%=      5-min Rain = 0
KPD2 162051Z 15008KT 21/01 A2991 RMK A01 T02080005  RH  026%=      5-min Rain = 0
KPD2 162052Z 14007G12KT 21/01 A2991 RMK A01 T02080005  RH  026%=      5-min Rain = 0
KPD2 162053Z 15006KT 21/01 A2991 RMK A01 T02080006  RH  026%=      5-min Rain = 0
KPD2 162054Z 14008KT 21/01 A2991 RMK A01 T02080005  RH  026%=      5-min Rain = 0
KPD2 162055Z 15009KT 21/00 A2991 RMK A01 T02080004  RH  026%=      5-min Rain = 0
KPD2 162056Z 14007KT 21/01 A2991 RMK A01 T02080005  RH  026%=      5-min Rain = 0
KPD2 162057Z 15010KT 21/00 A2991 RMK A01 T02080004  RH  026%=      5-min Rain = 0
KPD2 162058Z 15009KT 21/00 A2991 RMK A01 T02080004  RH  026%=      5-min Rain = 0
KPD2 162059Z 15010KT 21/00 A2991 RMK A01 T02070003  RH  026%=      5-min Rain = 0
KPD2 162100Z 17007KT 21/00 A2991 RMK A01 T02070004  RH  026%=      5-min Rain = 0
KPD2 162101Z 14007KT 21/00 A2991 RMK A01 T02060003  RH  026%=      5-min Rain = 0
KPD2 162102Z 15010KT 21/00 A2991 RMK A01 T02060004  RH  026%=      5-min Rain = 0
KPD2 162103Z 16008KT 21/00 A2991 RMK A01 T02070004  RH  026%=      5-min Rain = 0
KPD2 162104Z 15007KT 21/00 A2991 RMK A01 T02070004  RH  026%=      5-min Rain = 0
KPD2 162105Z 15006KT 21/00 A2991 RMK A01 T02060003  RH  026%=      5-min Rain = 0
KPD2 162106Z 14006KT 21/00 A2991 RMK A01 T02070004  RH  026%=      5-min Rain = 0
KPD2 162107Z 13007KT 21/00 A2991 RMK A01 T02070004  RH  026%=      5-min Rain = 0
KPD2 162108Z 14008KT 21/00 A2991 RMK A01 T02070004  RH  026%=      5-min Rain = 0
KPD2 162109Z 17006KT 21/00 A2991 RMK A01 T02070004  RH  026%=      5-min Rain = 0
KPD2 162110Z 16004KT 21/00 A2991 RMK A01 T02070004  RH  026%=      5-min Rain = 0
KPD2 162111Z 17004KT 21/01 A2991 RMK A01 T02070005  RH  026%=      5-min Rain = 0
KPD2 162112Z 15006KT 21/01 A2991 RMK A01 T02070005  RH  026%=      5-min Rain = 0
KPD2 162113Z 12002KT 21/00 A2991 RMK A01 T02070003  RH  026%=      5-min Rain = 0
KPD2 162114Z 15002KT 21/00 A2991 RMK A01 T02070003  RH  026%=      5-min Rain = 0
KPD2 162115Z 16008KT 21/00 A2991 RMK A01 T02070004  RH  026%=      5-min Rain = 0
KPD2 162116Z 14007KT 21/01 A2991 RMK A01 T02070005  RH  026%=      5-min Rain = 0
KPD2 162117Z 14006KT 21/01 A2991 RMK A01 T02060006  RH  026%=      5-min Rain = 0
KPD2 162118Z 15007KT 21/01 A2991 RMK A01 T02060007  RH  026%=      5-min Rain = 0
KPD2 162119Z 15008KT 21/01 A2991 RMK A01 T02070007  RH  026%=      5-min Rain = 0
KPD2 162120Z 12008KT 21/01 A2991 RMK A01 T02070006  RH  026%=      5-min Rain = 0
KPD2 162121Z 15007KT 21/01 A2991 RMK A01 T02070007  RH  026%=      5-min Rain = 0
KPD2 162122Z 16007KT 21/01 A2991 RMK A01 T02070007  RH  026%=      5-min Rain = 0
KPD2 162123Z 15006KT 21/01 A2991 RMK A01 T02070007  RH  026%=      5-min Rain = 0
KPD2 162124Z 13004KT 21/01 A2991 RMK A01 T02070006  RH  026%=      5-min Rain = 0
KPD2 162125Z 14004KT 21/01 A2991 RMK A01 T02070007  RH  026%=      5-min Rain = 0
KPD2 162126Z 17009KT 21/01 A2991 RMK A01 T02070007  RH  026%=      5-min Rain = 0
KPD2 162127Z 20005KT 21/01 A2991 RMK A01 T02070006  RH  026%=      5-min Rain = 0
KPD2 162128Z 20004KT 21/01 A2991 RMK A01 T02060005  RH  026%=      5-min Rain = 0
KPD2 162129Z 14002KT 21/01 A2991 RMK A01 T02060005  RH  026%=      5-min Rain = 0
KPD2 162130Z 23003KT 21/01 A2991 RMK A01 T02060005  RH  026%=      5-min Rain = 0
KPD2 162131Z 20001KT 21/01 A2991 RMK A01 T02060006  RH  026%=      5-min Rain = 0
KPD2 162132Z 15002KT 21/01 A2991 RMK A01 T02070007  RH  026%=      5-min Rain = 0
KPD2 162133Z 16004KT 21/01 A2991 RMK A01 T02070007  RH  026%=      5-min Rain = 0
KPD2 162134Z 13004KT 21/01 A2991 RMK A01 T02080008  RH  026%=      5-min Rain = 0
KPD2 162135Z 14002KT 21/01 A2991 RMK A01 T02090008  RH  026%=      5-min Rain = 0
KPD2 162136Z 17002KT 21/01 A2991 RMK A01 T02090008  RH  026%=      5-min Rain = 0
KPD2 162137Z 18001KT 21/01 A2991 RMK A01 T02100007  RH  026%=      5-min Rain = 0
KPD2 162138Z 16003KT 21/01 A2991 RMK A01 T02100007  RH  026%=      5-min Rain = 0
KPD2 162139Z 16004KT 21/01 A2991 RMK A01 T02100008  RH  026%=      5-min Rain = 0
KPD2 162140Z 17005KT 21/01 A2991 RMK A01 T02090007  RH  026%=      5-min Rain = 0
KPD2 162141Z 17005KT 21/01 A2991 RMK A01 T02090007  RH  026%=      5-min Rain = 0
KPD2 162142Z 16005KT 21/01 A2991 RMK A01 T02080006  RH  026%=      5-min Rain = 0
KPD2 162143Z 14008KT 21/01 A2991 RMK A01 T02080008  RH  026%=      5-min Rain = 0
KPD2 162144Z 14007KT 21/01 A2991 RMK A01 T02070008  RH  027%=      5-min Rain = 0
KPD2 162145Z 14007KT 21/01 A2991 RMK A01 T02070008  RH  027%=      5-min Rain = 0
KPD2 162146Z 14006G11KT 21/01 A2991 RMK A01 T02070008  RH  027%=      5-min Rain = 0
KPD2 162147Z 15008G13KT 21/01 A2991 RMK A01 T02070009  RH  027%=      5-min Rain = 0
KPD2 162148Z 14007KT 21/01 A2991 RMK A01 T02060008  RH  027%=      5-min Rain = 0
KPD2 162149Z 14010KT 21/01 A2991 RMK A01 T02050008  RH  027%=      5-min Rain = 0
KPD2 162150Z 16010KT 20/01 A2991 RMK A01 T02040008  RH  027%=      5-min Rain = 0
KPD2 162151Z 15006KT 20/01 A2991 RMK A01 T02030007  RH  027%=      5-min Rain = 0
KPD2 162152Z 15006KT 20/01 A2991 RMK A01 T02030007  RH  027%=      5-min Rain = 0
KPD2 162153Z 17007KT 20/01 A2991 RMK A01 T02020008  RH  027%=      5-min Rain = 0
KPD2 162154Z 16005KT 20/01 A2991 RMK A01 T02020008  RH  027%=      5-min Rain = 0
KPD2 162155Z 17004KT 20/01 A2991 RMK A01 T02020009  RH  028%=      5-min Rain = 0
KPD2 162156Z 16008KT 20/01 A2991 RMK A01 T02020009  RH  028%=      5-min Rain = 0
KPD2 162157Z 14007KT 20/01 A2991 RMK A01 T02020008  RH  027%=      5-min Rain = 0
KPD2 162158Z 14006KT 20/01 A2991 RMK A01 T02010008  RH  027%=      5-min Rain = 0
KPD2 162159Z 17004KT 20/01 A2991 RMK A01 T02000007  RH  028%=      5-min Rain = 0
KPD2 162200Z 13008KT 20/01 A2991 RMK A01 T02000008  RH  028%=      5-min Rain = 0
KPD2 162201Z 13006KT 20/01 A2991 RMK A01 T01990008  RH  028%=      5-min Rain = 0
KPD2 162202Z 13005KT 20/01 A2992 RMK A01 T01990008  RH  028%=      5-min Rain = 0
KPD2 162203Z 13008KT 20/01 A2992 RMK A01 T01990008  RH  028%=      5-min Rain = 0
KPD2 162204Z 16008KT 20/01 A2992 RMK A01 T01990008  RH  028%=      5-min Rain = 0
KPD2 162205Z 16005KT 20/01 A2992 RMK A01 T01980008  RH  028%=      5-min Rain = 0
KPD2 162206Z 18005KT 20/01 A2992 RMK A01 T01980009  RH  028%=      5-min Rain = 0
KPD2 162207Z 15008KT 20/01 A2992 RMK A01 T01980008  RH  028%=      5-min Rain = 0
KPD2 162208Z 20004KT 20/01 A2992 RMK A01 T01980008  RH  028%=      5-min Rain = 0
KPD2 162209Z 15002KT 20/01 A2992 RMK A01 T01980008  RH  028%=      5-min Rain = 0
KPD2 162210Z 15003KT 20/01 A2992 RMK A01 T01970008  RH  028%=      5-min Rain = 0
KPD2 162211Z 15003KT 20/01 A2992 RMK A01 T01970008  RH  028%=      5-min Rain = 0
KPD2 162212Z 13005KT 20/01 A2992 RMK A01 T01970009  RH  028%=      5-min Rain = 0
KPD2 162213Z 13008KT 20/01 A2992 RMK A01 T01970009  RH  028%=      5-min Rain = 0
KPD2 162214Z 13007KT 20/01 A2992 RMK A01 T01970009  RH  028%=      5-min Rain = 0
KPD2 162215Z 14007KT 20/01 A2992 RMK A01 T01960008  RH  028%=      5-min Rain = 0
KPD2 162216Z 12005KT 20/01 A2992 RMK A01 T01960008  RH  028%=      5-min Rain = 0
KPD2 162217Z 14006KT 20/01 A2992 RMK A01 T01960008  RH  029%=      5-min Rain = 0
KPD2 162218Z 15005KT 20/01 A2992 RMK A01 T01950009  RH  029%=      5-min Rain = 0
KPD2 162219Z 15006KT 20/01 A2992 RMK A01 T01950009  RH  029%=      5-min Rain = 0
KPD2 162220Z 15010KT 20/01 A2992 RMK A01 T01950009  RH  029%=      5-min Rain = 0
KPD2 162221Z 14006KT 19/01 A2992 RMK A01 T01940009  RH  029%=      5-min Rain = 0
KPD2 162222Z 16008KT 19/01 A2992 RMK A01 T01930010  RH  029%=      5-min Rain = 0
KPD2 162223Z 17010KT 19/01 A2992 RMK A01 T01920009  RH  029%=      5-min Rain = 0
KPD2 162224Z 16008KT 19/01 A2992 RMK A01 T01920009  RH  029%=      5-min Rain = 0
KPD2 162225Z 16009KT 19/01 A2992 RMK A01 T01910009  RH  029%=      5-min Rain = 0
KPD2 162226Z 17006KT 19/01 A2992 RMK A01 T01910009  RH  030%=      5-min Rain = 0
KPD2 162227Z 15008KT 19/01 A2992 RMK A01 T01910009  RH  030%=      5-min Rain = 0
KPD2 162228Z 14008KT 19/01 A2992 RMK A01 T01900010  RH  030%=      5-min Rain = 0
KPD2 162229Z 15008KT 19/01 A2992 RMK A01 T01900010  RH  030%=      5-min Rain = 0
KPD2 162230Z 14005G12KT 19/01 A2992 RMK A01 T01900010  RH  030%=      5-min Rain = 0
KPD2 162231Z 14007KT 19/01 A2992 RMK A01 T01890010  RH  030%=      5-min Rain = 0
KPD2 162232Z 13007KT 19/01 A2992 RMK A01 T01890011  RH  030%=      5-min Rain = 0
KPD2 162233Z 14007KT 19/01 A2992 RMK A01 T01890011  RH  030%=      5-min Rain = 0
KPD2 162234Z 13003KT 19/01 A2992 RMK A01 T01890010  RH  030%=      5-min Rain = 0
KPD2 162235Z 13007KT 19/01 A2992 RMK A01 T01890011  RH  030%=      5-min Rain = 0
KPD2 162236Z 13009KT 19/01 A2992 RMK A01 T01880011  RH  030%=      5-min Rain = 0
KPD2 162237Z 14010KT 19/01 A2992 RMK A01 T01890012  RH  031%=      5-min Rain = 0
KPD2 162238Z 16010KT 19/01 A2992 RMK A01 T01880012  RH  031%=      5-min Rain = 0
KPD2 162239Z 13010KT 19/01 A2992 RMK A01 T01880012  RH  031%=      5-min Rain = 0
KPD2 162240Z 13010KT 19/01 A2992 RMK A01 T01870012  RH  031%=      5-min Rain = 0
KPD2 162241Z 12006KT 19/01 A2992 RMK A01 T01870011  RH  031%=      5-min Rain = 0
KPD2 162242Z 12005KT 19/01 A2992 RMK A01 T01880012  RH  031%=      5-min Rain = 0
KPD2 162243Z 13007KT 19/01 A2992 RMK A01 T01870012  RH  031%=      5-min Rain = 0
KPD2 162244Z 14008KT 19/01 A2992 RMK A01 T01870012  RH  031%=      5-min Rain = 0
KPD2 162245Z 16007KT 19/01 A2992 RMK A01 T01870012  RH  031%=      5-min Rain = 0
KPD2 162246Z 14008KT 19/01 A2992 RMK A01 T01870012  RH  031%=      5-min Rain = 0
KPD2 162247Z 14008KT 19/01 A2992 RMK A01 T01870012  RH  031%=      5-min Rain = 0
KPD2 162248Z 15006KT 19/01 A2992 RMK A01 T01870012  RH  031%=      5-min Rain = 0
KPD2 162249Z 12005KT 19/01 A2992 RMK A01 T01870012  RH  031%=      5-min Rain = 0
KPD2 162250Z 15005KT 19/01 A2992 RMK A01 T01870013  RH  031%=      5-min Rain = 0
KPD2 162251Z 15005KT 19/01 A2992 RMK A01 T01870013  RH  031%=      5-min Rain = 0
KPD2 162252Z 13006KT 19/01 A2992 RMK A01 T01870013  RH  031%=      5-min Rain = 0
KPD2 162253Z 13007KT 19/01 A2992 RMK A01 T01870014  RH  031%=      5-min Rain = 0
KPD2 162254Z 12004KT 19/01 A2992 RMK A01 T01870014  RH  031%=      5-min Rain = 0
KPD2 162255Z 13006KT 19/01 A2992 RMK A01 T01870014  RH  031%=      5-min Rain = 0
KPD2 162256Z 14005KT 19/01 A2992 RMK A01 T01870013  RH  031%=      5-min Rain = 0
KPD2 162257Z 14006KT 19/01 A2992 RMK A01 T01880014  RH  031%=      5-min Rain = 0
KPD2 162258Z 15006KT 19/01 A2992 RMK A01 T01870014  RH  031%=      5-min Rain = 0
KPD2 162259Z 15006KT 19/01 A2992 RMK A01 T01870014  RH  031%=      5-min Rain = 0
KPD2 162300Z 15004KT 19/01 A2992 RMK A01 T01870013  RH  031%=      5-min Rain = 0
KPD2 162301Z 13006KT 19/01 A2992 RMK A01 T01870013  RH  031%=      5-min Rain = 0
KPD2 162302Z 13006KT 19/01 A2992 RMK A01 T01870013  RH  031%=      5-min Rain = 0
KPD2 162303Z 13005KT 19/01 A2992 RMK A01 T01870013  RH  031%=      5-min Rain = 0
KPD2 162304Z 12004KT 19/01 A2992 RMK A01 T01860013  RH  031%=      5-min Rain = 0
KPD2 162305Z 13005KT 19/01 A2992 RMK A01 T01860014  RH  031%=      5-min Rain = 0
KPD2 162306Z 13004KT 19/01 A2992 RMK A01 T01860014  RH  032%=      5-min Rain = 0
KPD2 162307Z 12006KT 19/01 A2992 RMK A01 T01850014  RH  032%=      5-min Rain = 0
KPD2 162308Z 13006KT 19/01 A2992 RMK A01 T01850014  RH  032%=      5-min Rain = 0
KPD2 162309Z 12005KT 18/01 A2992 RMK A01 T01840014  RH  032%=      5-min Rain = 0
KPD2 162310Z 13005KT 18/01 A2992 RMK A01 T01840014  RH  032%=      5-min Rain = 0
KPD2 162311Z 12006KT 18/01 A2992 RMK A01 T01830014  RH  032%=      5-min Rain = 0
KPD2 162312Z 13005KT 18/01 A2992 RMK A01 T01830014  RH  032%=      5-min Rain = 0
KPD2 162313Z 13005KT 18/01 A2992 RMK A01 T01830014  RH  032%=      5-min Rain = 0
KPD2 162314Z 13005KT 18/01 A2992 RMK A01 T01820014  RH  032%=      5-min Rain = 0
KPD2 162315Z 13004KT 18/01 A2992 RMK A01 T01820014  RH  032%=      5-min Rain = 0
KPD2 162316Z 12005KT 18/01 A2992 RMK A01 T01810014  RH  033%=      5-min Rain = 0
KPD2 162317Z 12005KT 18/02 A2992 RMK A01 T01810015  RH  033%=      5-min Rain = 0
KPD2 162318Z 13005KT 18/01 A2992 RMK A01 T01800014  RH  033%=      5-min Rain = 0
KPD2 162319Z 12005KT 18/02 A2992 RMK A01 T01810015  RH  033%=      5-min Rain = 0
KPD2 162320Z 12006KT 18/02 A2992 RMK A01 T01800015  RH  033%=      5-min Rain = 0
KPD2 162321Z 12006KT 18/02 A2992 RMK A01 T01790015  RH  033%=      5-min Rain = 0
KPD2 162322Z 13006KT 18/01 A2992 RMK A01 T01790014  RH  033%=      5-min Rain = 0
KPD2 162323Z 13006KT 18/02 A2992 RMK A01 T01790015  RH  033%=      5-min Rain = 0
KPD2 162324Z 13006KT 18/02 A2992 RMK A01 T01780015  RH  033%=      5-min Rain = 0
KPD2 162325Z 13006KT 18/02 A2992 RMK A01 T01780015  RH  033%=      5-min Rain = 0
KPD2 162326Z 14007KT 18/02 A2992 RMK A01 T01770015  RH  034%=      5-min Rain = 0
KPD2 162327Z 13006KT 18/02 A2992 RMK A01 T01760015  RH  034%=      5-min Rain = 0
KPD2 162328Z 14009KT 18/01 A2992 RMK A01 T01760014  RH  034%=      5-min Rain = 0
KPD2 162329Z 14006KT 18/01 A2992 RMK A01 T01760014  RH  034%=      5-min Rain = 0
KPD2 162330Z 14006KT 18/02 A2992 RMK A01 T01760015  RH  034%=      5-min Rain = 0
KPD2 162331Z 14007KT 18/02 A2992 RMK A01 T01750015  RH  034%=      5-min Rain = 0
KPD2 162332Z 13006KT 18/02 A2992 RMK A01 T01750015  RH  034%=      5-min Rain = 0
KPD2 162333Z 14007KT 18/02 A2992 RMK A01 T01750016  RH  034%=      5-min Rain = 0
KPD2 162334Z 16008KT 17/02 A2992 RMK A01 T01740015  RH  034%=      5-min Rain = 0
KPD2 162335Z 16007KT 17/01 A2992 RMK A01 T01740014  RH  034%=      5-min Rain = 0
KPD2 162336Z 14006KT 17/01 A2992 RMK A01 T01740014  RH  034%=      5-min Rain = 0
KPD2 162337Z 14006KT 18/01 A2993 RMK A01 T01750014  RH  034%=      5-min Rain = 0
KPD2 162338Z 13007KT 17/01 A2993 RMK A01 T01740014  RH  034%=      5-min Rain = 0
KPD2 162339Z 15009KT 17/01 A2993 RMK A01 T01730014  RH  034%=      5-min Rain = 0
KPD2 162340Z 16009KT 17/01 A2993 RMK A01 T01740013  RH  034%=      5-min Rain = 0
KPD2 162341Z 16009KT 18/01 A2993 RMK A01 T01750012  RH  034%=      5-min Rain = 0
KPD2 162342Z 14008KT 18/01 A2993 RMK A01 T01750012  RH  033%=      5-min Rain = 0
KPD2 162343Z 15009KT 18/01 A2993 RMK A01 T01750011  RH  033%=      5-min Rain = 0
KPD2 162344Z 15009KT 18/01 A2993 RMK A01 T01750011  RH  033%=      5-min Rain = 0
KPD2 162345Z 15009KT 18/01 A2993 RMK A01 T01760011  RH  033%=      5-min Rain = 0
KPD2 162346Z 15009KT 18/01 A2993 RMK A01 T01770011  RH  033%=      5-min Rain = 0
KPD2 162347Z 15010KT 18/01 A2993 RMK A01 T01770011  RH  033%=      5-min Rain = 0
KPD2 162348Z 15009KT 18/01 A2993 RMK A01 T01770011  RH  033%=      5-min Rain = 0
KPD2 162349Z 15009KT 18/01 A2993 RMK A01 T01770011  RH  033%=      5-min Rain = 0
KPD2 162350Z 15008KT 18/01 A2993 RMK A01 T01770011  RH  033%=      5-min Rain = 0
KPD2 162351Z 15008KT 18/01 A2993 RMK A01 T01760011  RH  033%=      5-min Rain = 0
KPD2 162352Z 14007KT 18/01 A2993 RMK A01 T01750010  RH  033%=      5-min Rain = 0
KPD2 162353Z 15008KT 18/01 A2993 RMK A01 T01750011  RH  033%=      5-min Rain = 0
KPD2 162354Z 14009KT 18/01 A2993 RMK A01 T01750011  RH  033%=      5-min Rain = 0
KPD2 162355Z 14006KT 18/01 A2993 RMK A01 T01750011  RH  033%=      5-min Rain = 0
KPD2 162356Z 15008KT 17/01 A2993 RMK A01 T01730011  RH  033%=      5-min Rain = 0
KPD2 162357Z 14006KT 17/01 A2993 RMK A01 T01730011  RH  034%=      5-min Rain = 0
KPD2 162358Z 13005KT 17/01 A2993 RMK A01 T01720011  RH  034%=      5-min Rain = 0
KPD2 162359Z 14006KT 17/01 A2993 RMK A01 T01710011  RH  034%=      5-min Rain = 0
KPD2 170000Z 16007KT 17/01 A2994 RMK A01 T01700011  RH  034%=      5-min Rain = 0
KPD2 170001Z 15005KT 17/01 A2994 RMK A01 T01710011  RH  034%=      5-min Rain = 0
KPD2 170002Z 15006KT 17/01 A2994 RMK A01 T01710011  RH  034%=      5-min Rain = 0
KPD2 170003Z 14005KT 17/01 A2994 RMK A01 T01710011  RH  034%=      5-min Rain = 0
KPD2 170004Z 13006KT 17/01 A2994 RMK A01 T01700011  RH  034%=      5-min Rain = 0
KPD2 170005Z 15006KT 17/01 A2994 RMK A01 T01690010  RH  034%=      5-min Rain = 0
KPD2 170006Z 14005KT 17/01 A2994 RMK A01 T01690010  RH  034%=      5-min Rain = 0
KPD2 170007Z 14005KT 17/01 A2994 RMK A01 T01680010  RH  034%=      5-min Rain = 0
KPD2 170008Z 14004KT 17/01 A2994 RMK A01 T01690011  RH  035%=      5-min Rain = 0
KPD2 170009Z 13005KT 17/01 A2994 RMK A01 T01670011  RH  035%=      5-min Rain = 0
KPD2 170010Z 13005KT 17/01 A2994 RMK A01 T01660011  RH  035%=      5-min Rain = 0
KPD2 170011Z 13005KT 16/01 A2994 RMK A01 T01640011  RH  035%=      5-min Rain = 0
KPD2 170012Z 13005KT 16/01 A2994 RMK A01 T01630011  RH  036%=      5-min Rain = 0
KPD2 170013Z 13006KT 16/01 A2994 RMK A01 T01620011  RH  036%=      5-min Rain = 0
KPD2 170014Z 13005KT 16/01 A2994 RMK A01 T01610011  RH  036%=      5-min Rain = 0
KPD2 170015Z 12005KT 16/01 A2994 RMK A01 T01600011  RH  036%=      5-min Rain = 0
KPD2 170016Z 12006KT 16/01 A2994 RMK A01 T01590011  RH  036%=      5-min Rain = 0
KPD2 170017Z 13005KT 16/01 A2994 RMK A01 T01590011  RH  037%=      5-min Rain = 0
KPD2 170018Z 12005KT 16/01 A2994 RMK A01 T01580011  RH  037%=      5-min Rain = 0
KPD2 170019Z 12005KT 16/01 A2994 RMK A01 T01580011  RH  037%=      5-min Rain = 0
KPD2 170020Z 12006KT 16/01 A2994 RMK A01 T01570011  RH  037%=      5-min Rain = 0
KPD2 170021Z 13007KT 16/01 A2994 RMK A01 T01570011  RH  037%=      5-min Rain = 0
KPD2 170022Z 13006KT 16/01 A2994 RMK A01 T01570011  RH  037%=      5-min Rain = 0
KPD2 170023Z 12006KT 16/01 A2994 RMK A01 T01580011  RH  037%=      5-min Rain = 0
KPD2 170024Z 12008KT 16/01 A2994 RMK A01 T01570011  RH  037%=      5-min Rain = 0
KPD2 170025Z 13007KT 16/01 A2994 RMK A01 T01570011  RH  037%=      5-min Rain = 0
KPD2 170026Z 12007KT 16/01 A2994 RMK A01 T01570011  RH  037%=      5-min Rain = 0
KPD2 170027Z 14007KT 16/01 A2995 RMK A01 T01570012  RH  037%=      5-min Rain = 0
KPD2 170028Z 14008KT 16/01 A2994 RMK A01 T01570012  RH  037%=      5-min Rain = 0
KPD2 170029Z 14005KT 16/01 A2995 RMK A01 T01590012  RH  037%=      5-min Rain = 0
KPD2 170030Z 16008KT 16/01 A2995 RMK A01 T01590012  RH  037%=      5-min Rain = 0
KPD2 170031Z 15005KT 16/01 A2995 RMK A01 T01600012  RH  037%=      5-min Rain = 0
KPD2 170032Z 15006KT 16/01 A2995 RMK A01 T01620012  RH  036%=      5-min Rain = 0
KPD2 170033Z 15006KT 16/01 A2995 RMK A01 T01620012  RH  036%=      5-min Rain = 0
KPD2 170034Z 15007KT 16/01 A2995 RMK A01 T01630012  RH  036%=      5-min Rain = 0
KPD2 170035Z 13007KT 16/01 A2995 RMK A01 T01630012  RH  036%=      5-min Rain = 0
KPD2 170036Z 15009KT 16/01 A2995 RMK A01 T01630012  RH  036%=      5-min Rain = 0
KPD2 170037Z 15007KT 16/01 A2995 RMK A01 T01630012  RH  036%=      5-min Rain = 0
KPD2 170038Z 14007KT 16/01 A2995 RMK A01 T01630012  RH  036%=      5-min Rain = 0
KPD2 170039Z 14008KT 16/01 A2995 RMK A01 T01640012  RH  036%=      5-min Rain = 0
KPD2 170040Z 15007KT 16/01 A2995 RMK A01 T01640012  RH  036%=      5-min Rain = 0
KPD2 170041Z 15006KT 16/01 A2995 RMK A01 T01640012  RH  036%=      5-min Rain = 0
KPD2 170042Z 15006KT 16/01 A2995 RMK A01 T01640012  RH  036%=      5-min Rain = 0
KPD2 170043Z 14006KT 16/01 A2995 RMK A01 T01640012  RH  036%=      5-min Rain = 0
KPD2 170044Z 14007KT 16/01 A2994 RMK A01 T01640012  RH  036%=      5-min Rain = 0
KPD2 170045Z 13007KT 16/01 A2994 RMK A01 T01630012  RH  036%=      5-min Rain = 0
KPD2 170046Z 13007KT 16/01 A2994 RMK A01 T01630013  RH  036%=      5-min Rain = 0
KPD2 170047Z 15007KT 16/01 A2994 RMK A01 T01620013  RH  036%=      5-min Rain = 0
KPD2 170048Z 13007G13KT 16/01 A2994 RMK A01 T01620012  RH  036%=      5-min Rain = 0
KPD2 170049Z 16008G14KT 16/01 A2994 RMK A01 T01620012  RH  036%=      5-min Rain = 0
KPD2 170050Z 14008KT 16/01 A2994 RMK A01 T01630012  RH  036%=      5-min Rain = 0
KPD2 170051Z 15007KT 16/01 A2994 RMK A01 T01640012  RH  036%=      5-min Rain = 0
KPD2 170052Z 14007KT 16/01 A2994 RMK A01 T01640012  RH  036%=      5-min Rain = 0
KPD2 170053Z 16007KT 16/01 A2995 RMK A01 T01640012  RH  036%=      5-min Rain = 0
KPD2 170054Z 13006KT 16/01 A2994 RMK A01 T01640012  RH  036%=      5-min Rain = 0
KPD2 170055Z 15007KT 16/01 A2995 RMK A01 T01640013  RH  036%=      5-min Rain = 0
KPD2 170056Z 14006KT 16/01 A2995 RMK A01 T01630013  RH  036%=      5-min Rain = 0
KPD2 170057Z 14004KT 16/01 A2995 RMK A01 T01630012  RH  036%=      5-min Rain = 0
KPD2 170058Z 14007KT 16/01 A2995 RMK A01 T01620013  RH  036%=      5-min Rain = 0
KPD2 170059Z 14008KT 16/01 A2995 RMK A01 T01620012  RH  036%=      5-min Rain = 0
KPD2 170100Z 16007KT 16/01 A2995 RMK A01 T01620012  RH  036%=      5-min Rain = 0
KPD2 170101Z 15005KT 16/01 A2995 RMK A01 T01620012  RH  036%=      5-min Rain = 0
KPD2 170102Z 15006KT 16/01 A2995 RMK A01 T01630012  RH  036%=      5-min Rain = 0
KPD2 170103Z 16005KT 16/01 A2995 RMK A01 T01630013  RH  036%=      5-min Rain = 0
KPD2 170104Z 16004KT 16/01 A2995 RMK A01 T01630012  RH  036%=      5-min Rain = 0
KPD2 170105Z 14004KT 16/01 A2995 RMK A01 T01620013  RH  036%=      5-min Rain = 0
KPD2 170106Z 15006G11KT 16/01 A2995 RMK A01 T01620012  RH  036%=      5-min Rain = 0
KPD2 170107Z 17008KT 16/01 A2995 RMK A01 T01610013  RH  037%=      5-min Rain = 0
KPD2 170108Z 14005KT 16/01 A2995 RMK A01 T01620013  RH  036%=      5-min Rain = 0
KPD2 170109Z 15006KT 16/01 A2995 RMK A01 T01620013  RH  036%=      5-min Rain = 0
KPD2 170110Z 14005KT 16/01 A2995 RMK A01 T01610013  RH  037%=      5-min Rain = 0
KPD2 170111Z 14007KT 16/01 A2995 RMK A01 T01610013  RH  037%=      5-min Rain = 0
KPD2 170112Z 14008KT 16/01 A2995 RMK A01 T01600013  RH  037%=      5-min Rain = 0
KPD2 170113Z 15007KT 16/01 A2995 RMK A01 T01600013  RH  037%=      5-min Rain = 0
KPD2 170114Z 15007KT 16/01 A2995 RMK A01 T01600013  RH  037%=      5-min Rain = 0
KPD2 170115Z 15005KT 16/01 A2995 RMK A01 T01590013  RH  037%=      5-min Rain = 0
KPD2 170116Z 14005KT 16/01 A2995 RMK A01 T01590013  RH  037%=      5-min Rain = 0
KPD2 170117Z 13007KT 16/01 A2995 RMK A01 T01580013  RH  037%=      5-min Rain = 0
KPD2 170118Z 14008KT 16/01 A2995 RMK A01 T01570013  RH  038%=      5-min Rain = 0
KPD2 170119Z 14005KT 16/01 A2995 RMK A01 T01570013  RH  038%=      5-min Rain = 0
KPD2 170120Z 11005KT 16/01 A2995 RMK A01 T01570013  RH  038%=      5-min Rain = 0
KPD2 170121Z 14006KT 16/01 A2995 RMK A01 T01560013  RH  038%=      5-min Rain = 0
KPD2 170122Z 13007KT 16/01 A2995 RMK A01 T01560014  RH  038%=      5-min Rain = 0
KPD2 170123Z 13007KT 16/01 A2995 RMK A01 T01560014  RH  038%=      5-min Rain = 0
KPD2 170124Z 14007KT 16/01 A2995 RMK A01 T01560014  RH  038%=      5-min Rain = 0
KPD2 170125Z 14006KT 16/02 A2995 RMK A01 T01560015  RH  038%=      5-min Rain = 0
KPD2 170126Z 14005KT 16/01 A2995 RMK A01 T01560014  RH  038%=      5-min Rain = 0
KPD2 170127Z 13007KT 16/01 A2995 RMK A01 T01560014  RH  038%=      5-min Rain = 0
KPD2 170128Z 14005KT 16/01 A2995 RMK A01 T01550014  RH  038%=      5-min Rain = 0
KPD2 170129Z 13005KT 15/01 A2995 RMK A01 T01540014  RH  039%=      5-min Rain = 0
KPD2 170130Z 14005KT 15/01 A2995 RMK A01 T01540014  RH  039%=      5-min Rain = 0
KPD2 170131Z 12005KT 15/01 A2995 RMK A01 T01530014  RH  039%=      5-min Rain = 0
KPD2 170132Z 12006KT 15/01 A2995 RMK A01 T01520014  RH  039%=      5-min Rain = 0
KPD2 170133Z 12006KT 15/01 A2995 RMK A01 T01520014  RH  039%=      5-min Rain = 0
KPD2 170134Z 12004KT 15/01 A2995 RMK A01 T01510014  RH  039%=      5-min Rain = 0
KPD2 170135Z 13002KT 15/01 A2995 RMK A01 T01500014  RH  039%=      5-min Rain = 0
KPD2 170136Z 12002KT 15/01 A2995 RMK A01 T01500013  RH  040%=      5-min Rain = 0
KPD2 170137Z 15005KT 15/01 A2995 RMK A01 T01490013  RH  040%=      5-min Rain = 0
KPD2 170138Z 13005KT 15/01 A2995 RMK A01 T01480014  RH  040%=      5-min Rain = 0
KPD2 170139Z 11005KT 15/01 A2995 RMK A01 T01480014  RH  040%=      5-min Rain = 0
KPD2 170140Z 12005KT 15/01 A2995 RMK A01 T01480014  RH  040%=      5-min Rain = 0
KPD2 170141Z 11006KT 15/01 A2995 RMK A01 T01480014  RH  040%=      5-min Rain = 0
KPD2 170142Z 12004KT 15/01 A2995 RMK A01 T01490014  RH  040%=      5-min Rain = 0
KPD2 170143Z 13005KT 15/01 A2995 RMK A01 T01480014  RH  040%=      5-min Rain = 0
KPD2 170144Z 12005KT 15/01 A2995 RMK A01 T01480014  RH  040%=      5-min Rain = 0
KPD2 170145Z 13006KT 15/01 A2995 RMK A01 T01470014  RH  040%=      5-min Rain = 0
KPD2 170146Z 13007KT 15/01 A2995 RMK A01 T01460014  RH  041%=      5-min Rain = 0
KPD2 170147Z 14009KT 15/02 A2995 RMK A01 T01470015  RH  041%=      5-min Rain = 0
KPD2 170148Z 12008KT 15/02 A2995 RMK A01 T01480015  RH  040%=      5-min Rain = 0
KPD2 170149Z 11006KT 15/02 A2995 RMK A01 T01490015  RH  040%=      5-min Rain = 0
KPD2 170150Z 14009KT 15/01 A2995 RMK A01 T01480014  RH  040%=      5-min Rain = 0
KPD2 170151Z 13007KT 15/02 A2995 RMK A01 T01480015  RH  040%=      5-min Rain = 0
KPD2 170152Z 12006KT 15/01 A2995 RMK A01 T01480014  RH  040%=      5-min Rain = 0
KPD2 170153Z 13007KT 15/01 A2995 RMK A01 T01470014  RH  040%=      5-min Rain = 0
KPD2 170154Z 13003KT 15/01 A2995 RMK A01 T01460014  RH  041%=      5-min Rain = 0
KPD2 170155Z 12003KT 15/01 A2995 RMK A01 T01460014  RH  041%=      5-min Rain = 0
KPD2 170156Z 11004KT 15/01 A2995 RMK A01 T01460014  RH  041%=      5-min Rain = 0
KPD2 170157Z 11004KT 15/01 A2995 RMK A01 T01460014  RH  041%=      5-min Rain = 0
KPD2 170158Z 12006KT 15/01 A2995 RMK A01 T01450014  RH  041%=      5-min Rain = 0
KPD2 170159Z 12006KT 15/01 A2995 RMK A01 T01450014  RH  041%=      5-min Rain = 0
KPD2 170200Z 12006KT 15/01 A2995 RMK A01 T01450014  RH  041%=      5-min Rain = 0
KPD2 170201Z 14006KT 14/01 A2995 RMK A01 T01440014  RH  041%=      5-min Rain = 0
KPD2 170202Z 13006KT 14/02 A2995 RMK A01 T01440015  RH  041%=      5-min Rain = 0
KPD2 170203Z 13007KT 14/02 A2995 RMK A01 T01440015  RH  041%=      5-min Rain = 0
KPD2 170204Z 13007KT 15/02 A2995 RMK A01 T01450015  RH  041%=      5-min Rain = 0
KPD2 170205Z 13007KT 15/02 A2995 RMK A01 T01450015  RH  041%=      5-min Rain = 0
KPD2 170206Z 12006KT 15/02 A2995 RMK A01 T01450016  RH  041%=      5-min Rain = 0
KPD2 170207Z 15007KT 15/02 A2995 RMK A01 T01450015  RH  041%=      5-min Rain = 0
KPD2 170208Z 15007KT 15/02 A2995 RMK A01 T01450016  RH  042%=      5-min Rain = 0
KPD2 170209Z 15006KT 15/02 A2995 RMK A01 T01450017  RH  042%=      5-min Rain = 0
KPD2 170210Z 15005KT 15/02 A2995 RMK A01 T01450018  RH  042%=      5-min Rain = 0
KPD2 170211Z 14005KT 15/02 A2995 RMK A01 T01460018  RH  042%=      5-min Rain = 0
KPD2 170212Z 14008KT 15/02 A2995 RMK A01 T01460018  RH  042%=      5-min Rain = 0
KPD2 170213Z 16007KT 15/02 A2995 RMK A01 T01470019  RH  042%=      5-min Rain = 0
KPD2 170214Z 16008KT 15/02 A2995 RMK A01 T01470020  RH  042%=      5-min Rain = 0
KPD2 170215Z 17006G11KT 15/02 A2995 RMK A01 T01490020  RH  042%=      5-min Rain = 0
KPD2 170216Z 12005KT 15/02 A2995 RMK A01 T01490020  RH  042%=      5-min Rain = 0
KPD2 170217Z 15007KT 15/02 A2995 RMK A01 T01490020  RH  041%=      5-min Rain = 0
KPD2 170218Z 16009G14KT 15/02 A2995 RMK A01 T01490021  RH  042%=      5-min Rain = 0
KPD2 170219Z 15005KT 15/02 A2995 RMK A01 T01500021  RH  042%=      5-min Rain = 0
KPD2 170220Z 13005KT 15/02 A2995 RMK A01 T01500021  RH  042%=      5-min Rain = 0
KPD2 170221Z 15005KT 15/02 A2996 RMK A01 T01500020  RH  041%=      5-min Rain = 0
KPD2 170222Z 12005KT 15/02 A2996 RMK A01 T01490020  RH  042%=      5-min Rain = 0
KPD2 170223Z 14004KT 15/02 A2996 RMK A01 T01470019  RH  042%=      5-min Rain = 0
KPD2 170224Z 11005KT 15/02 A2996 RMK A01 T01460019  RH  042%=      5-min Rain = 0
KPD2 170225Z 13003KT 15/02 A2996 RMK A01 T01450019  RH  042%=      5-min Rain = 0
KPD2 170226Z 12002KT 14/02 A2996 RMK A01 T01440019  RH  043%=      5-min Rain = 0
KPD2 170227Z 11003KT 14/02 A2996 RMK A01 T01440019  RH  043%=      5-min Rain = 0
KPD2 170228Z 11005KT 14/02 A2996 RMK A01 T01430019  RH  043%=      5-min Rain = 0
KPD2 170229Z 09003KT 14/02 A2995 RMK A01 T01430019  RH  043%=      5-min Rain = 0
KPD2 170230Z 08002KT 14/02 A2995 RMK A01 T01420019  RH  043%=      5-min Rain = 0
KPD2 170231Z 16002KT 14/02 A2995 RMK A01 T01420019  RH  043%=      5-min Rain = 0
KPD2 170232Z 13001KT 14/02 A2995 RMK A01 T01420019  RH  043%=      5-min Rain = 0
KPD2 170233Z 15002KT 14/02 A2995 RMK A01 T01410019  RH  043%=      5-min Rain = 0
KPD2 170234Z 13003KT 14/02 A2995 RMK A01 T01400019  RH  044%=      5-min Rain = 0
KPD2 170235Z 13003KT 14/02 A2995 RMK A01 T01390019  RH  044%=      5-min Rain = 0
KPD2 170236Z 14004KT 14/02 A2995 RMK A01 T01390018  RH  044%=      5-min Rain = 0
KPD2 170237Z 12004KT 14/02 A2995 RMK A01 T01370018  RH  044%=      5-min Rain = 0
KPD2 170238Z 12003KT 14/02 A2995 RMK A01 T01360018  RH  045%=      5-min Rain = 0
KPD2 170239Z 11004KT 14/02 A2995 RMK A01 T01360018  RH  045%=      5-min Rain = 0
KPD2 170240Z 15004KT 14/02 A2995 RMK A01 T01360019  RH  045%=      5-min Rain = 0
KPD2 170241Z 12003KT 14/02 A2995 RMK A01 T01370019  RH  045%=      5-min Rain = 0
KPD2 170242Z 11004KT 14/02 A2995 RMK A01 T01370019  RH  045%=      5-min Rain = 0
KPD2 170243Z 10003KT 14/02 A2995 RMK A01 T01360019  RH  045%=      5-min Rain = 0
KPD2 170244Z 11003KT 14/02 A2995 RMK A01 T01360019  RH  045%=      5-min Rain = 0
KPD2 170245Z 14004KT 14/02 A2995 RMK A01 T01360019  RH  045%=      5-min Rain = 0
KPD2 170246Z 11004KT 14/02 A2995 RMK A01 T01370020  RH  045%=      5-min Rain = 0
KPD2 170247Z 12004KT 14/02 A2995 RMK A01 T01370020  RH  045%=      5-min Rain = 0
KPD2 170248Z 10005KT 14/02 A2995 RMK A01 T01380020  RH  045%=      5-min Rain = 0
KPD2 170249Z 10003KT 14/02 A2995 RMK A01 T01380020  RH  045%=      5-min Rain = 0
KPD2 170250Z 14003KT 14/02 A2995 RMK A01 T01390020  RH  045%=      5-min Rain = 0
KPD2 170251Z 13005KT 14/02 A2995 RMK A01 T01390021  RH  045%=      5-min Rain = 0
KPD2 170252Z 11003KT 14/02 A2995 RMK A01 T01400021  RH  044%=      5-min Rain = 0
KPD2 170253Z 12004KT 14/02 A2995 RMK A01 T01400021  RH  044%=      5-min Rain = 0
KPD2 170254Z 13004KT 14/02 A2995 RMK A01 T01400021  RH  044%=      5-min Rain = 0
KPD2 170255Z 13004KT 14/02 A2996 RMK A01 T01390020  RH  045%=      5-min Rain = 0
KPD2 170256Z 11004KT 14/02 A2996 RMK A01 T01390020  RH  044%=      5-min Rain = 0
KPD2 170257Z 11003KT 14/02 A2996 RMK A01 T01390020  RH  044%=      5-min Rain = 0
KPD2 170258Z 15001KT 14/02 A2996 RMK A01 T01390020  RH  045%=      5-min Rain = 0
KPD2 170259Z 06002KT 14/02 A2996 RMK A01 T01390020  RH  045%=      5-min Rain = 0
KPD2 170300Z 10004KT 14/02 A2996 RMK A01 T01380020  RH  045%=      5-min Rain = 0
KPD2 170301Z 10003KT 14/02 A2996 RMK A01 T01380020  RH  045%=      5-min Rain = 0
KPD2 170302Z 11005KT 14/02 A2996 RMK A01 T01370020  RH  045%=      5-min Rain = 0
KPD2 170303Z 14004KT 14/02 A2996 RMK A01 T01380020  RH  045%=      5-min Rain = 0
KPD2 170304Z 17004KT 14/02 A2996 RMK A01 T01390020  RH  045%=      5-min Rain = 0
KPD2 170305Z 13001KT 14/02 A2996 RMK A01 T01400020  RH  044%=      5-min Rain = 0
KPD2 170306Z 18000KT 14/02 A2996 RMK A01 T01400020  RH  044%=      5-min Rain = 0
KPD2 170307Z 17001KT 14/02 A2996 RMK A01 T01400020  RH  044%=      5-min Rain = 0
KPD2 170308Z 20001KT 14/02 A2996 RMK A01 T01400020  RH  044%=      5-min Rain = 0
KPD2 170309Z 10001KT 14/02 A2996 RMK A01 T01400020  RH  044%=      5-min Rain = 0
KPD2 170310Z 11004KT 14/02 A2996 RMK A01 T01400020  RH  044%=      5-min Rain = 0
KPD2 170311Z 13005KT 14/02 A2996 RMK A01 T01400020  RH  044%=      5-min Rain = 0
KPD2 170312Z 13002KT 14/02 A2996 RMK A01 T01390020  RH  044%=      5-min Rain = 0
KPD2 170313Z 16002KT 14/02 A2997 RMK A01 T01380020  RH  045%=      5-min Rain = 0
KPD2 170314Z 13004KT 14/02 A2996 RMK A01 T01380020  RH  045%=      5-min Rain = 0
KPD2 170315Z 17006KT 14/02 A2996 RMK A01 T01380020  RH  045%=      5-min Rain = 0
KPD2 170316Z 11007KT 14/02 A2996 RMK A01 T01400021  RH  044%=      5-min Rain = 0
KPD2 170317Z 14005KT 14/02 A2996 RMK A01 T01400021  RH  044%=      5-min Rain = 0
KPD2 170318Z 15008KT 14/02 A2996 RMK A01 T01390020  RH  044%=      5-min Rain = 0
KPD2 170319Z 15008KT 14/02 A2996 RMK A01 T01410020  RH  044%=      5-min Rain = 0
KPD2 170320Z 19003KT 14/02 A2996 RMK A01 T01420020  RH  044%=      5-min Rain = 0
KPD2 170321Z 14003KT 14/02 A2997 RMK A01 T01430020  RH  043%=      5-min Rain = 0
KPD2 170322Z 13005KT 14/02 A2997 RMK A01 T01430020  RH  043%=      5-min Rain = 0
KPD2 170323Z 12004KT 14/02 A2997 RMK A01 T01430020  RH  043%=      5-min Rain = 0
KPD2 170324Z 14006KT 14/02 A2997 RMK A01 T01420020  RH  043%=      5-min Rain = 0
KPD2 170325Z 14005KT 14/02 A2997 RMK A01 T01420019  RH  044%=      5-min Rain = 0
KPD2 170326Z 11003KT 14/02 A2997 RMK A01 T01420019  RH  044%=      5-min Rain = 0
KPD2 170327Z 13003KT 14/02 A2997 RMK A01 T01420019  RH  044%=      5-min Rain = 0
KPD2 170328Z 11003KT 14/02 A2997 RMK A01 T01410019  RH  044%=      5-min Rain = 0
KPD2 170329Z 10003KT 14/02 A2997 RMK A01 T01410019  RH  044%=      5-min Rain = 0
KPD2 170330Z 18002KT 14/02 A2997 RMK A01 T01400019  RH  044%=      5-min Rain = 0
KPD2 170331Z 18002KT 14/02 A2997 RMK A01 T01410020  RH  044%=      5-min Rain = 0
KPD2 170332Z 13002KT 14/02 A2997 RMK A01 T01410020  RH  044%=      5-min Rain = 0
KPD2 170333Z 13001KT 14/02 A2997 RMK A01 T01390019  RH  044%=      5-min Rain = 0
KPD2 170334Z 12003KT 14/02 A2997 RMK A01 T01390019  RH  044%=      5-min Rain = 0
KPD2 170335Z 10004KT 14/02 A2997 RMK A01 T01380018  RH  044%=      5-min Rain = 0
KPD2 170336Z 11006KT 14/02 A2997 RMK A01 T01370018  RH  044%=      5-min Rain = 0
KPD2 170337Z 10005KT 14/02 A2997 RMK A01 T01370019  RH  045%=      5-min Rain = 0
KPD2 170338Z 10005KT 14/02 A2997 RMK A01 T01370019  RH  045%=      5-min Rain = 0
KPD2 170339Z 10004KT 14/02 A2997 RMK A01 T01370019  RH  045%=      5-min Rain = 0
KPD2 170340Z 09004KT 14/02 A2997 RMK A01 T01370019  RH  045%=      5-min Rain = 0
KPD2 170341Z 10005KT 14/02 A2997 RMK A01 T01370019  RH  045%=      5-min Rain = 0
KPD2 170342Z 10005KT 14/02 A2997 RMK A01 T01360019  RH  045%=      5-min Rain = 0
KPD2 170343Z 10005KT 14/02 A2997 RMK A01 T01360018  RH  045%=      5-min Rain = 0
KPD2 170344Z 10004KT 14/02 A2997 RMK A01 T01360018  RH  045%=      5-min Rain = 0
KPD2 170345Z 10006KT 14/02 A2997 RMK A01 T01360019  RH  045%=      5-min Rain = 0
KPD2 170346Z 10006KT 14/02 A2997 RMK A01 T01370019  RH  045%=      5-min Rain = 0
KPD2 170347Z 09004KT 14/02 A2996 RMK A01 T01370019  RH  045%=      5-min Rain = 0
KPD2 170348Z 10005KT 14/02 A2996 RMK A01 T01370019  RH  045%=      5-min Rain = 0
KPD2 170349Z 11006KT 14/02 A2996 RMK A01 T01370018  RH  045%=      5-min Rain = 0
KPD2 170350Z 10005KT 14/02 A2996 RMK A01 T01370018  RH  045%=      5-min Rain = 0
KPD2 170351Z 10004KT 14/02 A2996 RMK A01 T01370018  RH  045%=      5-min Rain = 0
KPD2 170352Z 10007KT 14/02 A2996 RMK A01 T01360018  RH  045%=      5-min Rain = 0
KPD2 170353Z 09004KT 14/02 A2996 RMK A01 T01350019  RH  045%=      5-min Rain = 0
KPD2 170354Z 10004KT 13/02 A2996 RMK A01 T01340018  RH  045%=      5-min Rain = 0
KPD2 170355Z 09005KT 13/02 A2996 RMK A01 T01340018  RH  045%=      5-min Rain = 0
KPD2 170356Z 10007KT 13/02 A2996 RMK A01 T01330018  RH  046%=      5-min Rain = 0
KPD2 170357Z 09006KT 13/02 A2996 RMK A01 T01330018  RH  046%=      5-min Rain = 0
KPD2 170358Z 10005KT 13/02 A2996 RMK A01 T01340019  RH  045%=      5-min Rain = 0
KPD2 170359Z 10007KT 13/02 A2996 RMK A01 T01340019  RH  045%=      5-min Rain = 0
KPD2 170400Z 10005KT 13/02 A2996 RMK A01 T01340019  RH  045%=      5-min Rain = 0
KPD2 170401Z 10007KT 14/02 A2996 RMK A01 T01350019  RH  045%=      5-min Rain = 0
KPD2 170402Z 11008KT 14/02 A2996 RMK A01 T01350019  RH  045%=      5-min Rain = 0
KPD2 170403Z 12007KT 14/02 A2996 RMK A01 T01350019  RH  045%=      5-min Rain = 0
KPD2 170404Z 11006G11KT 14/02 A2996 RMK A01 T01350019  RH  045%=      5-min Rain = 0
KPD2 170405Z 11008KT 14/02 A2996 RMK A01 T01350019  RH  045%=      5-min Rain = 0
KPD2 170406Z 10006KT 14/02 A2995 RMK A01 T01350019  RH  045%=      5-min Rain = 0
KPD2 170407Z 09004KT 14/02 A2995 RMK A01 T01350020  RH  046%=      5-min Rain = 0
KPD2 170408Z 11004KT 14/02 A2996 RMK A01 T01350019  RH  046%=      5-min Rain = 0
KPD2 170409Z 10005KT 13/02 A2996 RMK A01 T01340019  RH  046%=      5-min Rain = 0
KPD2 170410Z 10004KT 13/02 A2996 RMK A01 T01340019  RH  046%=      5-min Rain = 0
KPD2 170411Z 09006KT 13/02 A2996 RMK A01 T01340019  RH  045%=      5-min Rain = 0
KPD2 170412Z 10007KT 14/02 A2996 RMK A01 T01350019  RH  045%=      5-min Rain = 0
KPD2 170413Z 12005KT 14/02 A2996 RMK A01 T01360019  RH  045%=      5-min Rain = 0
KPD2 170414Z 10003KT 14/02 A2995 RMK A01 T01360019  RH  045%=      5-min Rain = 0
KPD2 170415Z 13005KT 14/02 A2995 RMK A01 T01360019  RH  045%=      5-min Rain = 0
KPD2 170416Z 13006KT 14/02 A2996 RMK A01 T01360020  RH  045%=      5-min Rain = 0
KPD2 170417Z 13006KT 14/02 A2996 RMK A01 T01350019  RH  045%=      5-min Rain = 0
KPD2 170418Z 13004KT 13/02 A2996 RMK A01 T01340018  RH  045%=      5-min Rain = 0
KPD2 170419Z 13003KT 14/02 A2996 RMK A01 T01350019  RH  045%=      5-min Rain = 0
KPD2 170420Z 12003KT 13/02 A2996 RMK A01 T01340019  RH  046%=      5-min Rain = 0
KPD2 170421Z 12003KT 13/02 A2996 RMK A01 T01330018  RH  046%=      5-min Rain = 0
KPD2 170422Z 14003KT 13/02 A2996 RMK A01 T01330018  RH  046%=      5-min Rain = 0
KPD2 170423Z 17002KT 13/02 A2996 RMK A01 T01330018  RH  046%=      5-min Rain = 0
KPD2 170424Z 15001KT 13/02 A2996 RMK A01 T01340019  RH  046%=      5-min Rain = 0
KPD2 170425Z 15001KT 13/02 A2996 RMK A01 T01340018  RH  045%=      5-min Rain = 0
KPD2 170426Z 17001KT 13/02 A2996 RMK A01 T01340019  RH  046%=      5-min Rain = 0
KPD2 170427Z 26002KT 13/02 A2996 RMK A01 T01330018  RH  046%=      5-min Rain = 0
KPD2 170428Z 26001KT 13/02 A2996 RMK A01 T01320018  RH  046%=      5-min Rain = 0
KPD2 170429Z 27001KT 13/02 A2996 RMK A01 T01280016  RH  046%=      5-min Rain = 0
KPD2 170430Z 28002KT 13/02 A2996 RMK A01 T01250015  RH  047%=      5-min Rain = 0
KPD2 170431Z 30002KT 12/01 A2996 RMK A01 T01210013  RH  048%=      5-min Rain = 0
KPD2 170432Z 29002KT 12/01 A2997 RMK A01 T01150012  RH  049%=      5-min Rain = 0
KPD2 170433Z 32003KT 11/01 A2997 RMK A01 T01100012  RH  051%=      5-min Rain = 0
KPD2 170434Z 33003KT 11/01 A2997 RMK A01 T01060012  RH  052%=      5-min Rain = 0
KPD2 170435Z 36002KT 10/01 A2997 RMK A01 T01040012  RH  053%=      5-min Rain = 0
KPD2 170436Z 35001KT 10/01 A2997 RMK A01 T01020012  RH  054%=      5-min Rain = 0
KPD2 170437Z 35001KT 10/01 A2997 RMK A01 T01010013  RH  054%=      5-min Rain = 0
KPD2 170438Z 35002KT 10/01 A2997 RMK A01 T01000012  RH  055%=      5-min Rain = 0
KPD2 170439Z 35001KT 10/01 A2997 RMK A01 T00990013  RH  055%=      5-min Rain = 0
KPD2 170440Z 32002KT 10/01 A2997 RMK A01 T00980013  RH  055%=      5-min Rain = 0
KPD2 170441Z 32001KT 10/01 A2997 RMK A01 T00970013  RH  056%=      5-min Rain = 0
KPD2 170442Z 29003KT 10/01 A2997 RMK A01 T00970013  RH  056%=      5-min Rain = 0
KPD2 170443Z 30003KT 10/01 A2997 RMK A01 T00960013  RH  056%=      5-min Rain = 0
KPD2 170444Z 29004KT 10/01 A2997 RMK A01 T00960014  RH  057%=      5-min Rain = 0
KPD2 170445Z 30003KT 10/01 A2997 RMK A01 T00960014  RH  057%=      5-min Rain = 0
KPD2 170446Z 32003KT 10/01 A2997 RMK A01 T00970014  RH  057%=      5-min Rain = 0
KPD2 170447Z 31003KT 10/01 A2997 RMK A01 T00970014  RH  056%=      5-min Rain = 0
KPD2 170448Z 31003KT 10/02 A2997 RMK A01 T00970015  RH  057%=      5-min Rain = 0
KPD2 170449Z 31002KT 10/01 A2997 RMK A01 T00970014  RH  057%=      5-min Rain = 0
KPD2 170450Z 31002KT 10/01 A2997 RMK A01 T00960014  RH  057%=      5-min Rain = 0
KPD2 170451Z 30003KT 10/01 A2997 RMK A01 T00960014  RH  057%=      5-min Rain = 0
KPD2 170452Z 28003KT 10/01 A2997 RMK A01 T00960014  RH  057%=      5-min Rain = 0
KPD2 170453Z 27002KT 10/01 A2997 RMK A01 T00950013  RH  057%=      5-min Rain = 0
KPD2 170454Z 27002KT 10/01 A2997 RMK A01 T00950013  RH  057%=      5-min Rain = 0
KPD2 170455Z 29002KT 09/01 A2997 RMK A01 T00940013  RH  057%=      5-min Rain = 0
KPD2 170456Z 30002KT 09/01 A2997 RMK A01 T00940014  RH  057%=      5-min Rain = 0
KPD2 170457Z 30002KT 09/01 A2997 RMK A01 T00930014  RH  057%=      5-min Rain = 0
KPD2 170458Z 30003KT 09/01 A2998 RMK A01 T00920014  RH  058%=      5-min Rain = 0
KPD2 170459Z 32003KT 09/01 A2998 RMK A01 T00920014  RH  058%=      5-min Rain = 0
KPD2 170500Z 35003KT 09/01 A2998 RMK A01 T00920014  RH  058%=      5-min Rain = 0
KPD2 170501Z 34003KT 09/01 A2998 RMK A01 T00920014  RH  058%=      5-min Rain = 0
KPD2 170502Z 33003KT 09/01 A2998 RMK A01 T00910014  RH  058%=      5-min Rain = 0
KPD2 170503Z 34003KT 09/02 A2998 RMK A01 T00920015  RH  058%=      5-min Rain = 0
KPD2 170504Z 35004KT 09/01 A2998 RMK A01 T00930014  RH  058%=      5-min Rain = 0
KPD2 170505Z 31002KT 09/02 A2998 RMK A01 T00930015  RH  058%=      5-min Rain = 0
KPD2 170506Z 28003KT 09/02 A2998 RMK A01 T00930015  RH  058%=      5-min Rain = 0
KPD2 170507Z 30003KT 09/02 A2998 RMK A01 T00930015  RH  058%=      5-min Rain = 0
KPD2 170508Z 31002KT 09/02 A2998 RMK A01 T00930015  RH  058%=      5-min Rain = 0
KPD2 170509Z 30003KT 09/02 A2998 RMK A01 T00930015  RH  058%=      5-min Rain = 0
KPD2 170510Z 31002KT 09/02 A2998 RMK A01 T00930015  RH  058%=      5-min Rain = 0
KPD2 170511Z 31002KT 09/02 A2998 RMK A01 T00930015  RH  058%=      5-min Rain = 0
KPD2 170512Z 30002KT 09/02 A2998 RMK A01 T00930015  RH  058%=      5-min Rain = 0
KPD2 170513Z 30002KT 09/02 A2998 RMK A01 T00930015  RH  058%=      5-min Rain = 0
KPD2 170514Z 30003KT 09/02 A2998 RMK A01 T00930015  RH  058%=      5-min Rain = 0
KPD2 170515Z 31003KT 09/02 A2998 RMK A01 T00930015  RH  058%=      5-min Rain = 0
KPD2 170516Z 31003KT 09/02 A2998 RMK A01 T00930015  RH  058%=      5-min Rain = 0
KPD2 170517Z 33005KT 09/01 A2998 RMK A01 T00930014  RH  058%=      5-min Rain = 0
KPD2 170518Z 32004KT 09/01 A2998 RMK A01 T00930013  RH  058%=      5-min Rain = 0
KPD2 170519Z 31004KT 09/01 A2998 RMK A01 T00920013  RH  058%=      5-min Rain = 0
KPD2 170520Z 31004KT 09/01 A2998 RMK A01 T00910012  RH  058%=      5-min Rain = 0
KPD2 170521Z 32004KT 09/01 A2998 RMK A01 T00900013  RH  058%=      5-min Rain = 0
KPD2 170522Z 32004KT 09/01 A2998 RMK A01 T00900014  RH  059%=      5-min Rain = 0
KPD2 170523Z 31003KT 09/01 A2998 RMK A01 T00900014  RH  059%=      5-min Rain = 0
KPD2 170524Z 30003KT 09/01 A2998 RMK A01 T00900014  RH  059%=      5-min Rain = 0
KPD2 170525Z 32003KT 09/01 A2998 RMK A01 T00900014  RH  059%=      5-min Rain = 0
KPD2 170526Z 33004KT 09/01 A2998 RMK A01 T00900014  RH  059%=      5-min Rain = 0
KPD2 170527Z 32004KT 09/01 A2998 RMK A01 T00900014  RH  059%=      5-min Rain = 0
KPD2 170528Z 32004KT 09/02 A2998 RMK A01 T00910015  RH  059%=      5-min Rain = 0
KPD2 170529Z 31005KT 09/02 A2998 RMK A01 T00910015  RH  059%=      5-min Rain = 0
KPD2 170530Z 30004KT 09/02 A2998 RMK A01 T00920015  RH  059%=      5-min Rain = 0
KPD2 170531Z 30005KT 09/02 A2998 RMK A01 T00920015  RH  058%=      5-min Rain = 0
KPD2 170532Z 30005KT 09/02 A2998 RMK A01 T00920015  RH  059%=      5-min Rain = 0
KPD2 170533Z 29004KT 09/02 A2998 RMK A01 T00930015  RH  058%=      5-min Rain = 0
KPD2 170534Z 29004KT 09/02 A2998 RMK A01 T00930016  RH  058%=      5-min Rain = 0
KPD2 170535Z 29004KT 09/02 A2998 RMK A01 T00930016  RH  058%=      5-min Rain = 0
KPD2 170536Z 28003KT 09/02 A2998 RMK A01 T00930015  RH  058%=      5-min Rain = 0
KPD2 170537Z 28004KT 09/02 A2998 RMK A01 T00930015  RH  058%=      5-min Rain = 0
KPD2 170538Z 30004KT 09/02 A2999 RMK A01 T00930016  RH  058%=      5-min Rain = 0
KPD2 170539Z 29004KT 09/02 A2999 RMK A01 T00920015  RH  059%=      5-min Rain = 0
KPD2 170540Z 30004KT 09/02 A2999 RMK A01 T00920015  RH  059%=      5-min Rain = 0
KPD2 170541Z 30003KT 09/02 A2999 RMK A01 T00910015  RH  059%=      5-min Rain = 0
KPD2 170542Z 32004KT 09/02 A2999 RMK A01 T00900015  RH  059%=      5-min Rain = 0
KPD2 170543Z 34004KT 09/02 A2999 RMK A01 T00900015  RH  059%=      5-min Rain = 0
KPD2 170544Z 35003KT 09/02 A2999 RMK A01 T00900015  RH  059%=      5-min Rain = 0
KPD2 170545Z 36002KT 09/02 A2999 RMK A01 T00900015  RH  060%=      5-min Rain = 0
KPD2 170546Z 36003KT 09/02 A2999 RMK A01 T00890015  RH  060%=      5-min Rain = 0
KPD2 170547Z 36003KT 09/02 A2999 RMK A01 T00890015  RH  060%=      5-min Rain = 0
KPD2 170548Z 36003KT 09/02 A2999 RMK A01 T00890015  RH  060%=      5-min Rain = 0
KPD2 170549Z 36003KT 09/02 A2999 RMK A01 T00890015  RH  060%=      5-min Rain = 0
KPD2 170550Z 00003KT 09/02 A2999 RMK A01 T00890015  RH  060%=      5-min Rain = 0
KPD2 170551Z 00003KT 09/02 A2999 RMK A01 T00890015  RH  060%=      5-min Rain = 0
KPD2 170552Z 35003KT 09/02 A2999 RMK A01 T00890015  RH  060%=      5-min Rain = 0
KPD2 170553Z 33002KT 09/02 A2999 RMK A01 T00900015  RH  060%=      5-min Rain = 0
KPD2 170554Z 33001KT 09/02 A2999 RMK A01 T00900015  RH  059%=      5-min Rain = 0
KPD2 170555Z 33002KT 09/02 A2999 RMK A01 T00900015  RH  059%=      5-min Rain = 0
KPD2 170556Z 33001KT 09/02 A2999 RMK A01 T00900015  RH  059%=      5-min Rain = 0
KPD2 170557Z 34002KT 09/02 A2999 RMK A01 T00900015  RH  059%=      5-min Rain = 0
KPD2 170558Z 34003KT 09/02 A2999 RMK A01 T00910015  RH  059%=      5-min Rain = 0
KPD2 170559Z 35002KT 09/02 A2999 RMK A01 T00920015  RH  059%=      5-min Rain = 0

Page generated in 0.1242 seconds.